M I D A S
Marine Information and Data Acquisition System
Tripno 1889 of the Zeeleeuw from 2010-05-28 06:39:10 to 2010-05-28 13:46:39
Back to CruiseResearch ActivitiesStationsMapUnderway DataData graphs

EquipmentUnitsComment
TimeDGPSUTC
LatitudeDGPSDM.mWGS84
LongitudeDGPSDM.mWGS84
TemperatureSBE03/SBE38deg celciusITS90
ConductivitySBE21S/mITS90
SalinitySBE21 Practical Salinity Units
ChlorophylAChelsea fluorimeterg/lCalibrated in Aceton
Missing or incorrect values are displayed as -999
Sea surface data collected by the RV Zeeleeuw from 2010-05-28 06:24:11 to 2010-05-28 13:54:46
                                                                                    Next 1000 lines
Time Latitude Longitude Temperature Conductivity Salinity ChlorophylA
2010-05-28 06:24:22 51°13.662 2°55.956 20.1875 0.070053 0.429308 -1.035392
2010-05-28 06:24:27 51°13.662 2°55.953 20.2859 0.070053 0.429308 -1.035392
2010-05-28 06:24:31 51°13.663 2°55.95 20.3509 0.070053 0.429299 -1.035392
2010-05-28 06:24:37 51°13.665 2°55.945 20.3577 0.070053 0.429308 -1.035392
2010-05-28 06:24:42 51°13.666 2°55.94 20.3477 0.070053 0.429308 -1.000568
2010-05-28 06:24:48 51°13.668 2°55.932 20.373 0.070157 0.429969 -1.035392
2010-05-28 06:24:54 51°13.67 2°55.924 20.3977 0.070157 0.429969 -1.035392
2010-05-28 06:24:59 51°13.673 2°55.916 20.3929 0.070157 0.429969 -1.035392
2010-05-28 06:25:05 51°13.676 2°55.906 20.4052 0.070157 0.429969 -1.070216
2010-05-28 06:25:10 51°13.678 2°55.897 20.4043 0.070053 0.429308 -1.000568
2010-05-28 06:25:15 51°13.681 2°55.887 20.3997 0.070053 0.429308 -1.070216
2010-05-28 06:25:20 51°13.683 2°55.878 20.4012 0.070053 0.429316 -1.035392
2010-05-28 06:25:25 51°13.685 2°55.869 20.3953 0.070053 0.429316 -1.035392
2010-05-28 06:25:30 51°13.686 2°55.86 20.3942 0.070053 0.429316 -1.035392
2010-05-28 06:25:35 51°13.688 2°55.851 20.4087 0.070053 0.429316 -1.000568
2010-05-28 06:25:40 51°13.689 2°55.842 20.3716 0.070053 0.429316 -1.035392
2010-05-28 06:25:45 51°13.69 2°55.834 20.3828 0.070053 0.429308 -1.000568
2010-05-28 06:25:50 51°13.691 2°55.825 20.3853 0.070053 0.429316 -1.000568
2010-05-28 06:25:55 51°13.691 2°55.816 20.3944 0.070157 0.429977 -1.035392
2010-05-28 06:26:00 51°13.692 2°55.808 20.4078 0.070157 0.429977 -1.035392
2010-05-28 06:26:05 51°13.692 2°55.8 20.4086 0.070053 0.429316 -1.035392
2010-05-28 06:26:10 51°13.692 2°55.792 20.404 0.070157 0.429977 -1.035392
2010-05-28 06:26:15 51°13.692 2°55.784 20.4029 0.070053 0.429316 -1.000568
2010-05-28 06:26:21 51°13.692 2°55.776 20.4047 0.070053 0.429308 -1.000568
2010-05-28 06:26:25 51°13.692 2°55.77 20.4089 0.070157 0.429969 -1.035392
2010-05-28 06:26:30 51°13.693 2°55.764 20.4179 0.070157 0.429969 -1.035392
2010-05-28 06:26:35 51°13.693 2°55.758 20.4016 0.070157 0.429969 -1.035392
2010-05-28 06:26:39 51°13.693 2°55.756 20.4129 0.070157 0.429969 -1.000568
2010-05-28 06:26:44 51°13.693 2°55.753 20.4224 0.070157 0.429961 -1.035392
2010-05-28 06:26:49 51°13.694 2°55.751 20.3957 0.070157 0.429969 -1.000568
2010-05-28 06:26:54 51°13.694 2°55.75 20.4092 0.070053 0.429308 -1.035392
2010-05-28 06:26:59 51°13.695 2°55.749 20.4115 0.070053 0.429308 -1.035392
2010-05-28 06:27:03 51°13.695 2°55.748 20.4121 0.070157 0.429977 -1.035392
2010-05-28 06:27:08 51°13.696 2°55.748 20.415 0.070157 0.429977 -1.070216
2010-05-28 06:27:13 51°13.697 2°55.748 20.4119 0.070053 0.429316 -1.070216
2010-05-28 06:27:18 51°13.698 2°55.748 20.4109 0.070053 0.429324 -1.035392
2010-05-28 06:27:23 51°13.698 2°55.748 20.3609 0.070157 0.429985 -1.035392
2010-05-28 06:27:27 51°13.699 2°55.748 20.3204 0.070157 0.429985 -1.035392
2010-05-28 06:27:33 51°13.699 2°55.747 20.3801 0.070157 0.429985 -1.035392
2010-05-28 06:27:38 51°13.699 2°55.745 20.363 0.070053 0.429324 -1.000568
2010-05-28 06:27:42 51°13.699 2°55.744 20.3778 0.070157 0.429977 -1.035392
2010-05-28 06:27:47 51°13.699 2°55.742 20.416 0.070157 0.429969 -1.000568
2010-05-28 06:27:52 51°13.698 2°55.739 20.4027 0.070157 0.429977 -1.000568
2010-05-28 06:27:57 51°13.697 2°55.737 20.3994 0.070157 0.429977 -1.000568
2010-05-28 06:28:02 51°13.696 2°55.734 20.4126 0.070157 0.429977 -1.035392
2010-05-28 06:28:06 51°13.696 2°55.733 20.4627 0.070053 0.429316 -1.000568
2010-05-28 06:28:11 51°13.696 2°55.733 20.4827 0.070157 0.429969 -1.000568
2010-05-28 06:28:16 51°13.697 2°55.733 20.4833 0.070157 0.429977 -1.035392
2010-05-28 06:28:21 51°13.699 2°55.732 20.4786 0.070053 0.429316 -1.070216
2010-05-28 06:28:26 51°13.702 2°55.733 20.4812 0.070053 0.429316 -1.070216
2010-05-28 06:28:31 51°13.704 2°55.732 20.4868 0.070053 0.429324 -1.035392
2010-05-28 06:28:36 51°13.707 2°55.732 20.4915 0.070157 0.429993 -1.000568
2010-05-28 06:28:41 51°13.711 2°55.731 20.4813 0.070157 0.430001 -1.000568
2010-05-28 06:28:46 51°13.714 2°55.73 20.4741 0.070053 0.429348 -1.070216
2010-05-28 06:28:51 51°13.718 2°55.729 20.4712 0.070157 0.430001 -1.035392
2010-05-28 06:28:56 51°13.723 2°55.727 20.4734 0.070157 0.430001 -1.035392
2010-05-28 06:29:01 51°13.728 2°55.724 20.4758 0.070053 0.429332 -1.035392
2010-05-28 06:29:06 51°13.734 2°55.721 20.4006 0.070157 0.429993 -1.000568
2010-05-28 06:29:11 51°13.74 2°55.715 20.3987 0.070157 0.429985 -1.000568
2010-05-28 06:29:15 51°13.746 2°55.711 20.3625 0.070157 0.429977 -1.000568
2010-05-28 06:29:21 51°13.755 2°55.704 20.3338 0.070053 0.429308 -1.035392
2010-05-28 06:29:26 51°13.764 2°55.698 20.3604 0.070053 0.429308 -1.035392
2010-05-28 06:29:31 51°13.773 2°55.691 20.3237 0.070157 0.429953 -1.035392
2010-05-28 06:29:36 51°13.782 2°55.683 20.3169 0.070157 0.429953 -1.000568
2010-05-28 06:29:41 51°13.792 2°55.674 20.254 0.070157 0.429953 -1.000568
2010-05-28 06:29:46 51°13.801 2°55.665 20.214 0.070157 0.429961 -1.035392
2010-05-28 06:29:51 51°13.811 2°55.656 20.1582 0.070157 0.429961 -1.070216
2010-05-28 06:29:56 51°13.822 2°55.646 20.1284 0.070157 0.429961 -1.070216
2010-05-28 06:30:01 51°13.832 2°55.637 20.1056 0.070157 0.429961 -1.035392
2010-05-28 06:30:06 51°13.843 2°55.628 20.0823 0.070157 0.429961 -1.000568
2010-05-28 06:30:11 51°13.854 2°55.618 20.0601 0.070053 0.429299 -1.035392
2010-05-28 06:30:15 51°13.863 2°55.611 20.0817 0.070157 0.429953 -1.035392
2010-05-28 06:30:21 51°13.877 2°55.601 20.1635 0.070157 0.429953 -1.035392
2010-05-28 06:30:26 51°13.889 2°55.593 20.1956 0.070157 0.429953 -1.035392
2010-05-28 06:30:31 51°13.9 2°55.584 20.1948 0.070157 0.429961 -1.000568
2010-05-28 06:30:36 51°13.912 2°55.575 20.1893 0.070157 0.429961 -1.035392
2010-05-28 06:30:41 51°13.924 2°55.566 20.1798 0.070157 0.429969 -1.035392
2010-05-28 06:30:46 51°13.936 2°55.557 20.1803 0.070157 0.429977 -1.070216
2010-05-28 06:30:51 51°13.948 2°55.547 20.1385 0.070157 0.429969 -1.035392
2010-05-28 06:30:56 51°13.96 2°55.538 20.1204 0.070157 0.429969 -1.035392
2010-05-28 06:31:01 51°13.972 2°55.529 20.1466 0.070157 0.429969 -1.000568
2010-05-28 06:31:06 51°13.984 2°55.52 20.172 0.070157 0.429961 -1.035392
2010-05-28 06:31:11 51°13.996 2°55.512 20.1804 0.070157 0.429969 -1.000568
2010-05-28 06:31:16 51°14.009 2°55.503 20.177 0.070157 0.429961 -1.000568
2010-05-28 06:31:21 51°14.021 2°55.494 20.1677 0.070157 0.429953 -1.000568
2010-05-28 06:31:26 51°14.033 2°55.485 20.1979 0.070157 0.429953 -1.000568
2010-05-28 06:31:31 51°14.045 2°55.477 20.21 0.070157 0.429945 -1.035392
2010-05-28 06:31:35 51°14.055 2°55.47 20.2576 0.070157 0.429953 -1.000568
2010-05-28 06:31:41 51°14.07 2°55.46 20.323 0.070157 0.429953 -1.035392
2010-05-28 06:31:46 51°14.083 2°55.451 20.2616 0.070157 0.429961 -1.035392
2010-05-28 06:31:51 51°14.096 2°55.442 20.2524 0.070157 0.429961 -1.035392
2010-05-28 06:31:56 51°14.109 2°55.433 20.3017 0.070157 0.429961 -1.035392
2010-05-28 06:32:01 51°14.121 2°55.424 20.3368 0.070157 0.429953 -1.000568
2010-05-28 06:32:06 51°14.133 2°55.416 20.3382 0.070157 0.429961 -1.000568
2010-05-28 06:32:11 51°14.146 2°55.407 20.3369 0.070157 0.429953 -1.035392
2010-05-28 06:32:16 51°14.159 2°55.398 20.3339 0.070157 0.429953 -1.035392
2010-05-28 06:32:21 51°14.171 2°55.389 20.3349 0.070157 0.429945 -1.035392
2010-05-28 06:32:26 51°14.182 2°55.38 20.3156 0.070157 0.429945 -1.035392
2010-05-28 06:32:32 51°14.196 2°55.369 20.3268 0.070157 0.429936 -1.070216
2010-05-28 06:32:37 51°14.207 2°55.36 20.3381 0.070157 0.429945 -1.035392
2010-05-28 06:32:42 51°14.217 2°55.351 20.3398 0.070157 0.429953 -1.035392
2010-05-28 06:32:47 51°14.226 2°55.342 20.3402 0.070157 0.429936 -1.035392
2010-05-28 06:32:51 51°14.234 2°55.335 20.3578 0.070157 0.429945 -1.000568
2010-05-28 06:32:56 51°14.242 2°55.327 20.3685 0.070157 0.429945 -1.000568
2010-05-28 06:33:02 51°14.252 2°55.318 20.3902 0.070157 0.429945 -1.000568
2010-05-28 06:33:07 51°14.26 2°55.31 20.3925 0.070157 0.429936 -1.035392
2010-05-28 06:33:11 51°14.266 2°55.304 20.4012 0.070157 0.429936 -1.035392
2010-05-28 06:33:17 51°14.275 2°55.295 20.4005 0.070157 0.429945 -1.000568
2010-05-28 06:33:21 51°14.28 2°55.29 20.3952 0.070157 0.429936 -1.070216
2010-05-28 06:33:27 51°14.288 2°55.281 20.3898 0.070157 0.429936 -1.070216
2010-05-28 06:33:32 51°14.294 2°55.274 20.3987 0.070157 0.429936 -1.000568
2010-05-28 06:33:36 51°14.299 2°55.268 20.374 0.070157 0.429936 -1.070216
2010-05-28 06:33:41 51°14.304 2°55.261 20.4078 0.070157 0.42992 -1.000568
2010-05-28 06:33:47 51°14.311 2°55.253 20.3701 0.070157 0.429928 -1.035392
2010-05-28 06:33:52 51°14.316 2°55.247 20.3359 0.070157 0.42992 -1.035392
2010-05-28 06:33:56 51°14.32 2°55.242 20.3445 0.070157 0.42992 -1.035392
2010-05-28 06:34:01 51°14.325 2°55.237 20.3687 0.070157 0.429904 -1.000568
2010-05-28 06:34:06 51°14.33 2°55.233 20.3647 0.070157 0.429904 -1.035392
2010-05-28 06:34:12 51°14.335 2°55.227 20.3814 0.070157 0.429896 -1.000568
2010-05-28 06:34:17 51°14.34 2°55.224 20.4192 0.070157 0.429896 -1.070216
2010-05-28 06:34:21 51°14.343 2°55.221 20.4265 0.070157 0.429904 -1.035392
2010-05-28 06:34:27 51°14.349 2°55.216 20.4447 0.070157 0.429904 -1.035392
2010-05-28 06:34:32 51°14.355 2°55.212 20.4269 0.070157 0.429904 -1.070216
2010-05-28 06:34:37 51°14.361 2°55.208 20.4344 0.070157 0.429912 -1.035392
2010-05-28 06:34:41 51°14.365 2°55.205 20.3887 0.070157 0.429904 -1.035392
2010-05-28 06:34:47 51°14.373 2°55.2 20.4117 0.070157 0.429904 -1.070216
2010-05-28 06:34:51 51°14.379 2°55.195 20.3979 0.070157 0.429904 -1.000568
2010-05-28 06:34:56 51°14.385 2°55.19 20.4106 0.070157 0.429904 -1.000568
2010-05-28 06:35:01 51°14.392 2°55.184 20.4095 0.070157 0.429904 -1.035392
2010-05-28 06:35:07 51°14.402 2°55.178 20.3944 0.070157 0.429896 -1.035392
2010-05-28 06:35:12 51°14.41 2°55.172 20.3077 0.070157 0.429888 -1.000568
2010-05-28 06:35:16 51°14.417 2°55.167 20.3557 0.070157 0.429888 -1.070216
2010-05-28 06:35:22 51°14.428 2°55.159 20.3697 0.070157 0.429872 -1.035392
2010-05-28 06:35:27 51°14.439 2°55.152 20.3598 0.070157 0.429872 -1.035392
2010-05-28 06:35:31 51°14.447 2°55.146 20.3539 0.070157 0.429872 -1.000568
2010-05-28 06:35:36 51°14.458 2°55.139 20.3882 0.070157 0.429864 -1.070216
2010-05-28 06:35:41 51°14.47 2°55.129 20.3533 0.070157 0.429872 -1.035392
2010-05-28 06:35:47 51°14.485 2°55.117 20.3517 0.070157 0.42988 -1.000568
2010-05-28 06:35:52 51°14.498 2°55.105 20.3104 0.070157 0.429872 -1.035392
2010-05-28 06:35:56 51°14.508 2°55.095 20.3024 0.070157 0.429872 -1.035392
2010-05-28 06:36:01 51°14.521 2°55.081 20.3289 0.070157 0.429872 -1.035392
2010-05-28 06:36:07 51°14.536 2°55.062 20.2788 0.070157 0.429864 -1.035392
2010-05-28 06:36:12 51°14.548 2°55.044 20.1435 0.070157 0.429888 -1.000568
2010-05-28 06:36:16 51°14.558 2°55.028 20.0409 0.070157 0.42988 -1.000568
2010-05-28 06:36:21 51°14.57 2°55.008 19.9061 0.070157 0.429864 -1.000568
2010-05-28 06:36:27 51°14.586 2°54.984 19.8775 0.070157 0.429864 -1.000568
2010-05-28 06:36:32 51°14.6 2°54.966 19.9146 0.070157 0.42984 -1.035392
2010-05-28 06:36:36 51°14.611 2°54.953 19.9027 0.070157 0.429808 -1.035392
2010-05-28 06:36:41 51°14.627 2°54.938 20.0521 0.070157 0.4298 -1.000568
2010-05-28 06:36:46 51°14.642 2°54.925 20.0838 0.070157 0.429808 -1.035392
2010-05-28 06:36:52 51°14.661 2°54.909 20.1335 0.070157 0.429808 -1.000568
2010-05-28 06:36:57 51°14.677 2°54.896 20.1203 0.070157 0.429808 -1.000568
2010-05-28 06:37:01 51°14.69 2°54.885 20.1582 0.070157 0.42984 -1.035392
2010-05-28 06:37:07 51°14.71 2°54.868 20.157 0.070157 0.42984 -1.000568
2010-05-28 06:37:11 51°14.723 2°54.858 20.1896 0.070157 0.429848 -1.070216
2010-05-28 06:37:16 51°14.738 2°54.844 20.1858 0.070157 0.429856 -1.035392
2010-05-28 06:37:21 51°14.754 2°54.831 20.181 0.070157 0.429856 -1.035392
2010-05-28 06:37:27 51°14.773 2°54.814 20.2316 0.070157 0.429856 -1.035392
2010-05-28 06:37:32 51°14.789 2°54.799 20.1762 0.070157 0.429848 -1.070216
2010-05-28 06:37:36 51°14.801 2°54.786 20.2113 0.070157 0.429848 -1.035392
2010-05-28 06:37:42 51°14.819 2°54.767 20.1996 0.070157 0.42984 -1.035392
2010-05-28 06:37:47 51°14.834 2°54.75 20.2062 0.070157 0.429832 -1.035392
2010-05-28 06:37:52 51°14.848 2°54.732 20.1974 0.070157 0.429832 -1.035392
2010-05-28 06:37:56 51°14.859 2°54.717 20.1152 0.070157 0.429832 -1.035392
2010-05-28 06:38:01 51°14.873 2°54.699 20.1353 0.070157 0.429832 -1.000568
2010-05-28 06:38:07 51°14.89 2°54.675 20.1405 0.070157 0.429824 -1.035392
2010-05-28 06:38:12 51°14.904 2°54.656 20.1422 0.070157 0.429824 -1.000568
2010-05-28 06:38:16 51°14.915 2°54.641 20.1035 0.070157 0.429824 -1.000568
2010-05-28 06:38:21 51°14.929 2°54.621 20.1419 0.070157 0.429808 -1.000568
2010-05-28 06:38:27 51°14.946 2°54.598 20.1541 0.070157 0.429808 -1.000568
2010-05-28 06:38:31 51°14.957 2°54.583 20.1043 0.070157 0.429816 -1.000568
2010-05-28 06:38:36 51°14.971 2°54.565 20.0772 0.070157 0.4298 -1.035392
2010-05-28 06:38:41 51°14.985 2°54.547 20.1169 0.070157 0.429792 -1.000568
2010-05-28 06:38:46 51°14.999 2°54.53 20.0536 0.070157 0.429792 -1.035392
2010-05-28 06:38:51 51°15.013 2°54.512 20.0821 0.070157 0.4298 -1.035392
2010-05-28 06:38:56 51°15.028 2°54.495 20.1257 0.070157 0.4298 -1.035392
2010-05-28 06:39:01 51°15.042 2°54.477 20.1273 0.070157 0.4298 -1.035392
2010-05-28 06:39:06 51°15.056 2°54.46 20.086 0.070157 0.4298 -1.000568
2010-05-28 06:39:11 51°15.07 2°54.442 20.127 0.070157 0.429808 -1.035392
2010-05-28 06:39:16 51°15.084 2°54.424 20.0985 0.070157 0.4298 -1.000568
2010-05-28 06:39:21 51°15.098 2°54.406 20.0967 0.070157 0.4298 -1.000568
2010-05-28 06:39:26 51°15.112 2°54.388 20.0715 0.070157 0.4298 -1.000568
2010-05-28 06:39:31 51°15.126 2°54.37 20.119 0.070157 0.429792 -1.035392
2010-05-28 06:39:36 51°15.141 2°54.351 20.0789 0.070157 0.429784 -1.035392
2010-05-28 06:39:41 51°15.155 2°54.333 20.0858 0.070157 0.429767 -1.035392
2010-05-28 06:39:46 51°15.17 2°54.315 20.0716 0.070157 0.429776 -1.035392
2010-05-28 06:39:51 51°15.184 2°54.297 20.1128 0.070157 0.429759 -1.035392
2010-05-28 06:39:56 51°15.199 2°54.279 20.116 0.070157 0.429759 -1.035392
2010-05-28 06:40:01 51°15.213 2°54.261 20.0673 0.070157 0.429751 -1.070216
2010-05-28 06:40:06 51°15.228 2°54.243 20.0912 0.070157 0.429751 -1.000568
2010-05-28 06:40:11 51°15.242 2°54.226 20.1326 0.070157 0.429759 -1.000568
2010-05-28 06:40:16 51°15.257 2°54.208 20.0951 0.070157 0.429767 -1.035392
2010-05-28 06:40:21 51°15.271 2°54.19 20.1154 0.070157 0.429767 -1.035392
2010-05-28 06:40:27 51°15.289 2°54.168 20.056 0.070157 0.429767 -1.035392
2010-05-28 06:40:31 51°15.3 2°54.153 20.0826 0.070157 0.429767 -1.000568
2010-05-28 06:40:36 51°15.314 2°54.134 20.1222 0.070157 0.429759 -1.035392
2010-05-28 06:40:41 51°15.328 2°54.115 20.0906 0.070157 0.429767 -1.000568
2010-05-28 06:40:46 51°15.343 2°54.096 20.0972 0.070157 0.429759 -1.000568
2010-05-28 06:40:51 51°15.357 2°54.077 20.101 0.070157 0.429751 -1.000568
2010-05-28 06:40:56 51°15.371 2°54.058 20.0778 0.070157 0.429751 -1.000568
2010-05-28 06:41:01 51°15.386 2°54.039 20.1057 0.070157 0.429743 -1.035392
2010-05-28 06:41:06 51°15.4 2°54.02 20.0774 0.070157 0.429743 -1.035392
2010-05-28 06:41:11 51°15.414 2°54.002 20.1044 0.070261 0.430396 -1.035392
2010-05-28 06:41:16 51°15.429 2°53.983 20.0688 0.070157 0.429735 -1.035392
2010-05-28 06:41:21 51°15.443 2°53.964 20.0817 0.070157 0.429727 -1.000568
2010-05-28 06:41:26 51°15.458 2°53.946 20.1078 0.070157 0.429727 -1.000568
2010-05-28 06:41:31 51°15.472 2°53.927 20.1028 0.070157 0.429719 -1.035392
2010-05-28 06:41:36 51°15.487 2°53.908 20.0707 0.070157 0.429727 -1.000568
2010-05-28 06:41:41 51°15.501 2°53.889 20.0913 0.070157 0.429727 -1.035392
2010-05-28 06:41:46 51°15.516 2°53.871 20.1114 0.070157 0.429719 -1.035392
2010-05-28 06:41:51 51°15.53 2°53.852 20.1096 0.070157 0.429719 -1.035392
2010-05-28 06:41:56 51°15.544 2°53.833 20.084 0.070157 0.429719 -1.035392
2010-05-28 06:42:01 51°15.559 2°53.814 20.1165 0.070157 0.429719 -1.000568
2010-05-28 06:42:06 51°15.573 2°53.796 20.09 0.070157 0.429711 -1.035392
2010-05-28 06:42:11 51°15.588 2°53.776 20.0782 0.070157 0.429711 -1.035392
2010-05-28 06:42:16 51°15.602 2°53.757 20.0594 0.070157 0.429711 -1.035392
2010-05-28 06:42:21 51°15.616 2°53.738 20.077 0.070157 0.429711 -1.035392
2010-05-28 06:42:26 51°15.63 2°53.719 20.0809 0.070157 0.429711 -1.035392
2010-05-28 06:42:31 51°15.645 2°53.7 20.1053 0.070157 0.429711 -1.035392
2010-05-28 06:42:36 51°15.659 2°53.681 20.0927 0.070157 0.429703 -1.000568
2010-05-28 06:42:41 51°15.673 2°53.662 20.0821 0.070157 0.429703 -1.000568
2010-05-28 06:42:47 51°15.69 2°53.639 20.0929 0.070157 0.429703 -1.000568
2010-05-28 06:42:51 51°15.702 2°53.624 20.076 0.070157 0.429695 -1.035392
2010-05-28 06:42:56 51°15.716 2°53.605 20.1078 0.070157 0.429695 -1.035392
2010-05-28 06:43:01 51°15.731 2°53.586 20.082 0.070157 0.429687 -1.035392
2010-05-28 06:43:06 51°15.745 2°53.567 20.0726 0.070157 0.429695 -1.000568
2010-05-28 06:43:11 51°15.759 2°53.547 20.049 0.070157 0.429695 -1.035392
2010-05-28 06:43:16 51°15.773 2°53.529 20.0653 0.070157 0.429679 -1.035392
2010-05-28 06:43:21 51°15.788 2°53.51 20.0554 0.070157 0.429679 -1.035392
2010-05-28 06:43:26 51°15.802 2°53.492 20.069 0.070157 0.429679 -1.035392
2010-05-28 06:43:31 51°15.817 2°53.474 20.021 0.070157 0.429679 -1.000568
2010-05-28 06:43:36 51°15.832 2°53.457 20.0652 0.070157 0.429679 -1.035392
2010-05-28 06:43:41 51°15.847 2°53.44 20.0461 0.070261 0.43034 -1.000568
2010-05-28 06:43:46 51°15.862 2°53.424 20.0836 0.070157 0.429671 -1.000568
2010-05-28 06:43:51 51°15.878 2°53.407 20.0476 0.070157 0.429679 -1.000568
2010-05-28 06:43:56 51°15.893 2°53.393 20.0558 0.070157 0.429679 -1.000568
2010-05-28 06:44:01 51°15.909 2°53.378 20.0203 0.070157 0.429663 -1.035392
2010-05-28 06:44:06 51°15.924 2°53.364 20.0367 0.070157 0.429679 -1.000568
2010-05-28 06:44:11 51°15.94 2°53.349 20.0442 0.070157 0.429671 -1.035392
2010-05-28 06:44:16 51°15.957 2°53.337 20.0655 0.070157 0.429663 -1.035392
2010-05-28 06:44:21 51°15.972 2°53.323 20.0594 0.070157 0.429671 -1.035392
2010-05-28 06:44:26 51°15.989 2°53.311 20.0562 0.070157 0.429671 -1.035392
2010-05-28 06:44:31 51°16.005 2°53.297 20.0672 0.070261 0.430324 -1.000568
2010-05-28 06:44:36 51°16.021 2°53.285 20.0591 0.070157 0.429663 -1.035392
2010-05-28 06:44:41 51°16.037 2°53.272 20.0582 0.070157 0.429671 -1.035392
2010-05-28 06:44:47 51°16.057 2°53.258 20.0624 0.070157 0.429655 -1.000568
2010-05-28 06:44:51 51°16.07 2°53.248 20.0703 0.070261 0.430332 -1.000568
2010-05-28 06:44:56 51°16.086 2°53.236 20.0728 0.070261 0.430332 -1.000568
2010-05-28 06:45:01 51°16.102 2°53.223 20.0661 0.070261 0.430316 -1.000568
2010-05-28 06:45:07 51°16.122 2°53.208 20.0788 0.070157 0.429655 -1.035392
2010-05-28 06:45:11 51°16.135 2°53.199 20.061 0.070157 0.429663 -1.000568
2010-05-28 06:45:16 51°16.151 2°53.186 20.0281 0.070157 0.429655 -1.000568
2010-05-28 06:45:21 51°16.167 2°53.174 20.0724 0.070157 0.429647 -1.035392
2010-05-28 06:45:26 51°16.183 2°53.162 20.0898 0.070157 0.429647 -1.035392
2010-05-28 06:45:31 51°16.199 2°53.15 20.0294 0.070157 0.429631 -1.035392
2010-05-28 06:45:36 51°16.215 2°53.137 20.083 0.070157 0.429639 -1.070216
2010-05-28 06:45:41 51°16.232 2°53.125 20.0242 0.070157 0.429639 -1.035392
2010-05-28 06:45:46 51°16.248 2°53.112 20.1016 0.070157 0.429639 -1.035392
2010-05-28 06:45:51 51°16.264 2°53.1 20.027 0.070261 0.430291 -1.035392
2010-05-28 06:45:56 51°16.28 2°53.086 20.0818 0.070261 0.430291 -1.035392
2010-05-28 06:46:01 51°16.296 2°53.074 20.0403 0.070261 0.430283 -1.035392
2010-05-28 06:46:06 51°16.312 2°53.061 20.0705 0.070261 0.430291 -1.035392
2010-05-28 06:46:11 51°16.328 2°53.049 20.0489 0.070157 0.429631 -1.000568
2010-05-28 06:46:16 51°16.345 2°53.037 20.0657 0.070261 0.430283 -1.035392
2010-05-28 06:46:21 51°16.361 2°53.024 20.0774 0.070157 0.429623 -1.000568
2010-05-28 06:46:26 51°16.377 2°53.011 20.0806 0.070157 0.429623 -1.000568
2010-05-28 06:46:31 51°16.393 2°52.999 20.0554 0.070261 0.430275 -1.035392
2010-05-28 06:46:36 51°16.409 2°52.986 20.0707 0.070157 0.429607 -1.000568
2010-05-28 06:46:41 51°16.425 2°52.973 20.0757 0.070261 0.430275 -1.035392
2010-05-28 06:46:46 51°16.441 2°52.961 20.079 0.070261 0.430259 -1.035392
2010-05-28 06:46:51 51°16.457 2°52.949 20.0604 0.070157 0.429599 -1.035392
2010-05-28 06:46:56 51°16.473 2°52.936 20.0807 0.070157 0.429599 -1.035392
2010-05-28 06:47:01 51°16.49 2°52.924 20.0637 0.070261 0.430259 -1.070216
2010-05-28 06:47:07 51°16.509 2°52.908 20.0756 0.070261 0.430259 -1.035392
2010-05-28 06:47:11 51°16.522 2°52.899 20.0817 0.070261 0.430259 -1.035392
2010-05-28 06:47:16 51°16.538 2°52.887 20.0834 0.070261 0.430259 -1.000568
2010-05-28 06:47:21 51°16.555 2°52.876 20.0854 0.070261 0.430267 -1.035392
2010-05-28 06:47:26 51°16.571 2°52.865 20.0478 0.070261 0.430267 -1.035392
2010-05-28 06:47:31 51°16.587 2°52.853 20.0756 0.070261 0.430259 -1.035392
2010-05-28 06:47:36 51°16.604 2°52.842 20.0487 0.070261 0.430259 -1.070216
2010-05-28 06:47:41 51°16.62 2°52.83 20.0605 0.070261 0.430259 -1.000568
2010-05-28 06:47:46 51°16.636 2°52.819 20.0707 0.070261 0.430259 -1.035392
2010-05-28 06:47:52 51°16.655 2°52.805 20.0693 0.070261 0.430259 -1.035392
2010-05-28 06:47:56 51°16.668 2°52.796 20.06 0.070261 0.430259 -1.035392
2010-05-28 06:48:01 51°16.685 2°52.784 20.0465 0.070261 0.430251 -1.035392
2010-05-28 06:48:06 51°16.701 2°52.772 20.0853 0.070261 0.430251 -1.035392
2010-05-28 06:48:11 51°16.717 2°52.761 20.0614 0.070261 0.430243 -1.070216
2010-05-28 06:48:16 51°16.733 2°52.749 20.0787 0.070261 0.430243 -1.035392
2010-05-28 06:48:21 51°16.749 2°52.737 20.0567 0.070261 0.430235 -1.035392
2010-05-28 06:48:26 51°16.764 2°52.725 20.073 0.070261 0.430235 -1.035392
2010-05-28 06:48:31 51°16.78 2°52.714 20.0566 0.070261 0.430243 -1.035392
2010-05-28 06:48:36 51°16.796 2°52.703 20.0591 0.070261 0.430235 -1.035392
2010-05-28 06:48:41 51°16.811 2°52.691 20.0581 0.070261 0.430235 -1.035392
2010-05-28 06:48:46 51°16.827 2°52.681 20.0421 0.070261 0.430235 -1.035392
2010-05-28 06:48:51 51°16.843 2°52.67 20.0471 0.070261 0.430235 -1.035392
2010-05-28 06:48:56 51°16.859 2°52.659 20.032 0.070261 0.430235 -1.035392
2010-05-28 06:49:01 51°16.874 2°52.649 20.0569 0.070261 0.430227 -1.035392
2010-05-28 06:49:06 51°16.89 2°52.638 20.0558 0.070261 0.430219 -1.035392
2010-05-28 06:49:11 51°16.906 2°52.628 20.0326 0.070261 0.430219 -1.035392
2010-05-28 06:49:16 51°16.923 2°52.618 20.0322 0.070261 0.430227 -1.000568
2010-05-28 06:49:21 51°16.939 2°52.608 20.018 0.070261 0.430227 -1.000568
2010-05-28 06:49:26 51°16.955 2°52.598 20.0145 0.070261 0.430227 -1.000568
2010-05-28 06:49:31 51°16.971 2°52.589 20.0431 0.070261 0.430219 -1.000568
2010-05-28 06:49:36 51°16.988 2°52.581 20.0407 0.070261 0.430211 -1.035392
2010-05-28 06:49:40 51°17.002 2°52.575 20.022 0.070261 0.430211 -1.000568
2010-05-28 06:49:46 51°17.022 2°52.569 20.02 0.070261 0.430195 -1.000568
2010-05-28 06:49:51 51°17.039 2°52.563 20.0053 0.070261 0.430219 -1.035392
2010-05-28 06:49:56 51°17.055 2°52.561 20.0172 0.070261 0.430219 -1.035392
2010-05-28 06:50:01 51°17.072 2°52.557 20.0372 0.070261 0.430211 -1.035392
2010-05-28 06:50:06 51°17.088 2°52.556 20.0807 0.070261 0.430219 -1.000568
2010-05-28 06:50:11 51°17.105 2°52.555 20.0583 0.070261 0.430219 -1.070216
2010-05-28 06:50:16 51°17.122 2°52.554 20.0602 0.070261 0.430227 -1.035392
2010-05-28 06:50:21 51°17.138 2°52.554 20.0445 0.070261 0.430227 -1.000568
2010-05-28 06:50:26 51°17.155 2°52.554 20.0685 0.070261 0.430227 -1.000568
2010-05-28 06:50:31 51°17.171 2°52.554 20.049 0.070261 0.430227 -1.070216
2010-05-28 06:50:36 51°17.188 2°52.554 20.0672 0.070261 0.430219 -1.035392
2010-05-28 06:50:41 51°17.204 2°52.555 20.0371 0.070261 0.430211 -1.035392
2010-05-28 06:50:47 51°17.224 2°52.556 20.0053 0.070261 0.430211 -1.070216
2010-05-28 06:50:51 51°17.237 2°52.558 20.0099 0.070261 0.430211 -1.035392
2010-05-28 06:50:56 51°17.253 2°52.562 20.0312 0.070261 0.430211 -1.035392
2010-05-28 06:51:01 51°17.268 2°52.567 20.0284 0.070261 0.430187 -1.000568
2010-05-28 06:51:07 51°17.286 2°52.576 20.0446 0.070261 0.430195 -1.035392
2010-05-28 06:51:11 51°17.298 2°52.581 20.0446 0.070261 0.430187 -1.000568
2010-05-28 06:51:16 51°17.313 2°52.591 20.0535 0.070261 0.430195 -1.035392
2010-05-28 06:51:21 51°17.328 2°52.599 20.0301 0.070261 0.430211 -1.000568
2010-05-28 06:51:27 51°17.344 2°52.611 20.0439 0.070261 0.430211 -1.000568
2010-05-28 06:51:31 51°17.355 2°52.62 20.0174 0.070261 0.430203 -1.035392
2010-05-28 06:51:36 51°17.368 2°52.632 20.0548 0.070261 0.430211 -1.035392
2010-05-28 06:51:41 51°17.381 2°52.644 20.0382 0.070261 0.430219 -1.035392
2010-05-28 06:51:47 51°17.397 2°52.658 20.0389 0.070261 0.430219 -1.000568
2010-05-28 06:51:51 51°17.407 2°52.669 20.0633 0.070261 0.430211 -1.035392
2010-05-28 06:51:56 51°17.419 2°52.682 20.0538 0.070261 0.430211 -1.035392
2010-05-28 06:52:01 51°17.431 2°52.696 20.0171 0.070261 0.430211 -1.000568
2010-05-28 06:52:06 51°17.443 2°52.709 20.0535 0.070261 0.430211 -1.035392
2010-05-28 06:52:11 51°17.454 2°52.724 20.0722 0.070261 0.430195 -1.000568
2010-05-28 06:52:16 51°17.466 2°52.737 20.0696 0.070261 0.430211 -1.000568
2010-05-28 06:52:21 51°17.478 2°52.752 20.0775 0.070261 0.430195 -1.035392
2010-05-28 06:52:27 51°17.493 2°52.768 20.0378 0.070261 0.430195 -1.035392
2010-05-28 06:52:31 51°17.502 2°52.779 20.0597 0.070261 0.430203 -1.035392
2010-05-28 06:52:36 51°17.514 2°52.793 20.0716 0.070261 0.430195 -1.000568
2010-05-28 06:52:41 51°17.526 2°52.806 20.0485 0.070261 0.430203 -1.035392
2010-05-28 06:52:47 51°17.541 2°52.823 20.0575 0.070261 0.430203 -1.000568
2010-05-28 06:52:51 51°17.55 2°52.834 20.0749 0.070261 0.430187 -1.000568
2010-05-28 06:52:56 51°17.562 2°52.848 20.0332 0.070261 0.430187 -1.000568
2010-05-28 06:53:01 51°17.574 2°52.862 20.0734 0.070261 0.430195 -1.070216
2010-05-28 06:53:07 51°17.587 2°52.879 20.0397 0.070261 0.430179 -1.000568
2010-05-28 06:53:11 51°17.595 2°52.89 20.073 0.070261 0.430195 -1.000568
2010-05-28 06:53:16 51°17.606 2°52.904 20.0596 0.070261 0.430187 -1.000568
2010-05-28 06:53:21 51°17.616 2°52.917 20.075 0.070261 0.430187 -1.035392
2010-05-28 06:53:27 51°17.627 2°52.932 20.0786 0.070261 0.430187 -1.035392
2010-05-28 06:53:31 51°17.635 2°52.941 20.0973 0.070261 0.430195 -1.035392
2010-05-28 06:53:36 51°17.643 2°52.952 20.0967 0.070261 0.430203 -1.000568
2010-05-28 06:53:41 51°17.651 2°52.962 20.1035 0.070261 0.430203 -1.035392
2010-05-28 06:53:46 51°17.659 2°52.971 20.1058 0.070261 0.430203 -1.000568
2010-05-28 06:53:51 51°17.666 2°52.979 20.1064 0.070261 0.430211 -1.035392
2010-05-28 06:53:56 51°17.674 2°52.987 20.1046 0.070261 0.430211 -1.035392
2010-05-28 06:54:01 51°17.681 2°52.993 20.1215 0.070261 0.430203 -1.070216
2010-05-28 06:54:06 51°17.687 2°53 20.1155 0.070261 0.430195 -1.035392
2010-05-28 06:54:11 51°17.693 2°53.005 20.12 0.070261 0.430195 -1.035392
2010-05-28 06:54:16 51°17.699 2°53.011 20.115 0.070261 0.430187 -1.070216
2010-05-28 06:54:20 51°17.704 2°53.014 20.1133 0.070261 0.430179 -1.035392
2010-05-28 06:54:26 51°17.711 2°53.019 20.1114 0.070261 0.430179 -1.035392
2010-05-28 06:54:31 51°17.717 2°53.023 20.1112 0.070261 0.430179 -1.035392
2010-05-28 06:54:36 51°17.722 2°53.027 20.1113 0.070261 0.430179 -1.035392
2010-05-28 06:54:41 51°17.727 2°53.03 20.1228 0.070261 0.430171 -1.070216
2010-05-28 06:54:46 51°17.732 2°53.033 20.1217 0.070261 0.430179 -1.035392
2010-05-28 06:54:51 51°17.737 2°53.036 20.0984 0.070261 0.430179 -1.035392
2010-05-28 06:54:56 51°17.742 2°53.039 20.0961 0.070261 0.430179 -1.035392
2010-05-28 06:55:01 51°17.746 2°53.041 20.114 0.070261 0.430179 -1.035392
2010-05-28 06:55:06 51°17.751 2°53.044 20.1255 0.070261 0.430179 -1.000568
2010-05-28 06:55:11 51°17.755 2°53.046 20.1296 0.070261 0.430179 -1.000568
2010-05-28 06:55:16 51°17.759 2°53.048 20.109 0.070261 0.430179 -1.035392
2010-05-28 06:55:21 51°17.763 2°53.051 20.1115 0.070261 0.430179 -1.035392
2010-05-28 06:55:27 51°17.768 2°53.053 20.1241 0.070261 0.430179 -1.035392
2010-05-28 06:55:31 51°17.771 2°53.054 20.122 0.070261 0.430179 -1.035392
2010-05-28 06:55:36 51°17.775 2°53.057 20.1094 0.070261 0.430195 -1.035392
2010-05-28 06:55:41 51°17.778 2°53.058 20.1065 0.070261 0.430179 -1.035392
2010-05-28 06:55:46 51°17.782 2°53.06 20.1123 0.070261 0.430179 -1.000568
2010-05-28 06:55:51 51°17.785 2°53.062 20.0942 0.070261 0.430179 -1.035392
2010-05-28 06:55:56 51°17.789 2°53.063 20.0914 0.070261 0.430179 -1.035392
2010-05-28 06:56:01 51°17.792 2°53.065 20.1087 0.070261 0.430171 -1.035392
2010-05-28 06:56:07 51°17.796 2°53.067 20.1208 0.070261 0.430163 -1.035392
2010-05-28 06:56:11 51°17.799 2°53.068 20.1238 0.070261 0.430179 -1.070216
2010-05-28 06:56:16 51°17.802 2°53.069 20.1192 0.070261 0.430171 -1.035392
2010-05-28 06:56:21 51°17.805 2°53.07 20.1023 0.070261 0.430171 -1.035392
2010-05-28 06:56:26 51°17.808 2°53.071 20.1078 0.070261 0.430171 -1.035392
2010-05-28 06:56:31 51°17.811 2°53.073 20.1006 0.070261 0.430179 -1.000568
2010-05-28 06:56:36 51°17.814 2°53.074 20.0947 0.070261 0.430179 -1.000568
2010-05-28 06:56:41 51°17.818 2°53.075 20.0939 0.070261 0.430171 -1.000568
2010-05-28 06:56:46 51°17.821 2°53.075 20.0931 0.070261 0.430171 -1.000568
2010-05-28 06:56:51 51°17.824 2°53.077 20.077 0.070261 0.430163 -1.035392
2010-05-28 06:56:56 51°17.827 2°53.077 20.0815 0.070261 0.430163 -1.035392
2010-05-28 06:57:01 51°17.83 2°53.079 20.0971 0.070261 0.430163 -1.035392
2010-05-28 06:57:07 51°17.835 2°53.08 20.0777 0.070261 0.430155 -1.035392
2010-05-28 06:57:11 51°17.838 2°53.081 20.0959 0.070261 0.430163 -1.035392
2010-05-28 06:57:16 51°17.842 2°53.083 20.0688 0.070261 0.430155 -1.035392
2010-05-28 06:57:21 51°17.846 2°53.086 20.0729 0.070261 0.430147 -1.070216
2010-05-28 06:57:27 51°17.852 2°53.091 20.0814 0.070261 0.430147 -1.070216
2010-05-28 06:57:31 51°17.855 2°53.095 20.0899 0.070261 0.430147 -1.035392
2010-05-28 06:57:36 51°17.86 2°53.101 20.0833 0.070261 0.430147 -1.035392
2010-05-28 06:57:41 51°17.865 2°53.108 20.097 0.070261 0.430139 -1.070216
2010-05-28 06:57:47 51°17.871 2°53.117 20.0996 0.070261 0.430155 -1.035392
2010-05-28 06:57:51 51°17.876 2°53.124 20.0992 0.070261 0.430163 -1.035392
2010-05-28 06:57:56 51°17.882 2°53.133 20.094 0.070261 0.430163 -1.035392
2010-05-28 06:58:01 51°17.889 2°53.141 20.0997 0.070261 0.430179 -1.000568
2010-05-28 06:58:07 51°17.897 2°53.152 20.0989 0.070261 0.430187 -1.035392
2010-05-28 06:58:11 51°17.902 2°53.158 20.1034 0.070261 0.430187 -1.000568
2010-05-28 06:58:16 51°17.909 2°53.165 20.0849 0.070261 0.430171 -1.035392
2010-05-28 06:58:21 51°17.915 2°53.172 20.103 0.070261 0.430171 -1.035392
2010-05-28 06:58:27 51°17.922 2°53.179 20.0977 0.070261 0.430171 -1.035392
2010-05-28 06:58:31 51°17.928 2°53.182 20.1129 0.070261 0.430163 -1.000568
2010-05-28 06:58:36 51°17.933 2°53.187 20.1057 0.070261 0.430179 -1.035392
2010-05-28 06:58:41 51°17.938 2°53.19 20.1099 0.070261 0.430171 -1.035392
2010-05-28 06:58:46 51°17.943 2°53.192 20.1049 0.070261 0.430171 -1.000568
2010-05-28 06:58:51 51°17.948 2°53.194 20.109 0.070261 0.430171 -1.035392
2010-05-28 06:58:56 51°17.952 2°53.195 20.1106 0.070261 0.430171 -1.035392
2010-05-28 06:59:01 51°17.955 2°53.196 20.1083 0.070261 0.430171 -1.035392
2010-05-28 06:59:07 51°17.958 2°53.196 20.1006 0.070261 0.430155 -1.035392
2010-05-28 06:59:11 51°17.96 2°53.196 20.0951 0.070261 0.430163 -1.035392
2010-05-28 06:59:16 51°17.962 2°53.196 20.1113 0.070261 0.430163 -1.035392
2010-05-28 06:59:21 51°17.962 2°53.196 20.1071 0.070261 0.430139 -1.000568
2010-05-28 06:59:26 51°17.963 2°53.195 20.1002 0.070261 0.430139 -1.000568
2010-05-28 06:59:31 51°17.963 2°53.195 20.1034 0.070261 0.430147 -1.035392
2010-05-28 06:59:36 51°17.962 2°53.194 20.1139 0.070261 0.430139 -1.035392
2010-05-28 06:59:40 51°17.962 2°53.193 20.1135 0.070261 0.430139 -1.035392
2010-05-28 06:59:46 51°17.962 2°53.193 20.1038 0.070261 0.430139 -1.035392
2010-05-28 06:59:51 51°17.962 2°53.193 20.0933 0.070261 0.430147 -1.000568
2010-05-28 06:59:56 51°17.962 2°53.192 20.1095 0.070261 0.430147 -1.000568
2010-05-28 07:00:01 51°17.962 2°53.192 20.1095 0.070261 0.430139 -1.000568
2010-05-28 07:00:06 51°17.961 2°53.191 20.1111 0.070261 0.430139 -1.035392
2010-05-28 07:00:11 51°17.961 2°53.19 20.1075 0.070261 0.430131 -1.000568
2010-05-28 07:00:16 51°17.961 2°53.19 20.1051 0.070261 0.430131 -1.035392
2010-05-28 07:00:21 51°17.96 2°53.189 20.1147 0.070261 0.430131 -1.000568
2010-05-28 07:00:27 51°17.96 2°53.188 20.0922 0.070261 0.430131 -1.000568
2010-05-28 07:00:31 51°17.959 2°53.188 20.096 0.070261 0.430131 -1.000568
2010-05-28 07:00:36 51°17.959 2°53.186 20.1159 0.070261 0.430122 -1.035392
2010-05-28 07:00:41 51°17.958 2°53.186 20.1147 0.070261 0.430122 -1.035392
2010-05-28 07:00:47 51°17.958 2°53.185 20.1216 0.070261 0.430122 -1.035392
2010-05-28 07:00:51 51°17.957 2°53.184 20.1192 0.070261 0.430131 -1.000568
2010-05-28 07:00:56 51°17.956 2°53.183 20.1139 0.070261 0.430131 -1.000568
2010-05-28 07:01:01 51°17.956 2°53.182 20.1031 0.070261 0.430131 -1.000568
2010-05-28 07:01:06 51°17.955 2°53.181 20.1073 0.070261 0.430122 -1.035392
2010-05-28 07:01:11 51°17.954 2°53.18 20.1149 0.070261 0.430122 -1.035392
2010-05-28 07:01:16 51°17.954 2°53.179 20.1177 0.070261 0.430122 -1.000568
2010-05-28 07:01:21 51°17.953 2°53.178 20.1236 0.070261 0.430114 -1.000568
2010-05-28 07:01:26 51°17.952 2°53.178 20.122 0.070261 0.430114 -1.000568
2010-05-28 07:01:31 51°17.951 2°53.177 20.1156 0.070261 0.430106 -1.035392
2010-05-28 07:01:36 51°17.95 2°53.176 20.1105 0.070261 0.430114 -1.000568
2010-05-28 07:01:41 51°17.95 2°53.175 20.1259 0.070261 0.430114 -1.035392
2010-05-28 07:01:46 51°17.949 2°53.174 20.1232 0.070261 0.430106 -1.000568
2010-05-28 07:01:51 51°17.948 2°53.173 20.1163 0.070261 0.430106 -1.035392
2010-05-28 07:01:56 51°17.947 2°53.172 20.1125 0.070261 0.430106 -1.035392
2010-05-28 07:02:01 51°17.946 2°53.171 20.1106 0.070261 0.430114 -1.000568
2010-05-28 07:02:07 51°17.945 2°53.17 20.1285 0.070261 0.430114 -1.035392
2010-05-28 07:02:11 51°17.945 2°53.17 20.1233 0.070261 0.430114 -1.000568
2010-05-28 07:02:16 51°17.944 2°53.169 20.1145 0.070261 0.430106 -1.035392
2010-05-28 07:02:21 51°17.943 2°53.168 20.1205 0.070261 0.430122 -1.035392
2010-05-28 07:02:27 51°17.941 2°53.167 20.1246 0.070261 0.430122 -1.035392
2010-05-28 07:02:31 51°17.941 2°53.166 20.1301 0.070261 0.430106 -1.000568
2010-05-28 07:02:36 51°17.94 2°53.165 20.1158 0.070261 0.430122 -1.035392
2010-05-28 07:02:41 51°17.938 2°53.165 20.1126 0.070261 0.430106 -1.035392
2010-05-28 07:02:47 51°17.937 2°53.164 20.1309 0.070261 0.430114 -1.000568
2010-05-28 07:02:51 51°17.936 2°53.163 20.1172 0.070261 0.430098 -1.035392
2010-05-28 07:02:56 51°17.935 2°53.163 20.1213 0.070261 0.430098 -1.035392
2010-05-28 07:03:01 51°17.934 2°53.162 20.1231 0.070261 0.430106 -1.000568
2010-05-28 07:03:06 51°17.933 2°53.161 20.1238 0.070261 0.430098 -1.000568
2010-05-28 07:03:11 51°17.932 2°53.16 20.1297 0.070261 0.430098 -1.000568
2010-05-28 07:03:16 51°17.93 2°53.16 20.1306 0.070261 0.430098 -1.035392
2010-05-28 07:03:21 51°17.929 2°53.159 20.1159 0.070261 0.430098 -1.035392
2010-05-28 07:03:26 51°17.928 2°53.159 20.1222 0.070261 0.430098 -1.035392
2010-05-28 07:03:31 51°17.927 2°53.158 20.1275 0.070261 0.43009 -1.070216
2010-05-28 07:03:36 51°17.926 2°53.157 20.1333 0.070261 0.430098 -1.035392
2010-05-28 07:03:41 51°17.925 2°53.157 20.1152 0.070261 0.430098 -1.070216
2010-05-28 07:03:47 51°17.923 2°53.156 20.13 0.070261 0.430106 -1.035392
2010-05-28 07:03:51 51°17.922 2°53.156 20.136 0.070261 0.430106 -1.070216
2010-05-28 07:03:56 51°17.921 2°53.155 20.1415 0.070261 0.430106 -1.070216
2010-05-28 07:04:01 51°17.92 2°53.154 20.119 0.070261 0.430106 -1.000568
2010-05-28 07:04:07 51°17.918 2°53.153 20.1228 0.070261 0.43009 -1.035392
2010-05-28 07:04:11 51°17.917 2°53.153 20.1343 0.070261 0.430098 -1.070216
2010-05-28 07:04:16 51°17.916 2°53.152 20.1359 0.070261 0.430098 -1.035392
2010-05-28 07:04:21 51°17.915 2°53.151 20.1333 0.070261 0.43009 -1.035392
2010-05-28 07:04:27 51°17.913 2°53.151 20.1317 0.070261 0.43009 -1.035392
2010-05-28 07:04:31 51°17.912 2°53.15 20.1344 0.070261 0.430098 -1.070216
2010-05-28 07:04:36 51°17.911 2°53.149 20.1279 0.070261 0.430098 -1.035392
2010-05-28 07:04:41 51°17.909 2°53.148 20.1401 0.070261 0.43009 -1.035392
2010-05-28 07:04:46 51°17.908 2°53.148 20.1449 0.070261 0.43009 -1.035392
2010-05-28 07:04:51 51°17.907 2°53.147 20.1299 0.070261 0.43009 -1.035392
2010-05-28 07:04:56 51°17.906 2°53.147 20.1377 0.070261 0.43009 -1.035392
2010-05-28 07:05:01 51°17.904 2°53.146 20.1451 0.070261 0.430082 -1.035392
2010-05-28 07:05:06 51°17.903 2°53.145 20.1415 0.070261 0.43009 -1.000568
2010-05-28 07:05:11 51°17.901 2°53.145 20.1299 0.070261 0.430082 -1.000568
2010-05-28 07:05:16 51°17.9 2°53.144 20.1528 0.070261 0.430082 -1.035392
2010-05-28 07:05:21 51°17.899 2°53.143 20.1483 0.070261 0.430098 -1.035392
2010-05-28 07:05:26 51°17.897 2°53.143 20.1501 0.070261 0.430098 -1.035392
2010-05-28 07:05:31 51°17.896 2°53.142 20.1461 0.070261 0.430082 -1.035392
2010-05-28 07:05:36 51°17.896 2°53.142 20.142 0.070261 0.430082 -1.070216
2010-05-28 07:05:41 51°17.895 2°53.141 20.149 0.070261 0.430082 -1.035392
2010-05-28 07:05:46 51°17.895 2°53.141 20.152 0.070261 0.430066 -1.035392
2010-05-28 07:05:51 51°17.895 2°53.14 20.153 0.070261 0.430074 -1.035392
2010-05-28 07:05:56 51°17.895 2°53.139 20.1505 0.070261 0.430074 -1.035392
2010-05-28 07:06:01 51°17.896 2°53.138 20.1522 0.070261 0.430074 -1.035392
2010-05-28 07:06:06 51°17.897 2°53.138 20.1421 0.070261 0.430066 -1.035392
2010-05-28 07:06:11 51°17.898 2°53.138 20.1483 0.070261 0.430066 -1.070216
2010-05-28 07:06:16 51°17.9 2°53.139 20.1357 0.070261 0.430066 -1.000568
2010-05-28 07:06:21 51°17.903 2°53.14 20.1055 0.070261 0.430066 -1.000568
2010-05-28 07:06:26 51°17.906 2°53.142 20.1296 0.070261 0.430066 -1.000568
2010-05-28 07:06:31 51°17.91 2°53.146 20.1315 0.070261 0.430066 -1.035392
2010-05-28 07:06:36 51°17.914 2°53.151 20.1243 0.070261 0.430066 -1.035392
2010-05-28 07:06:41 51°17.917 2°53.158 20.1306 0.070261 0.430066 -1.000568
2010-05-28 07:06:46 51°17.92 2°53.166 20.1225 0.070261 0.430074 -1.000568
2010-05-28 07:06:51 51°17.922 2°53.176 20.109 0.070261 0.430074 -1.035392
2010-05-28 07:06:56 51°17.923 2°53.186 20.121 0.070261 0.430074 -1.035392
2010-05-28 07:07:01 51°17.923 2°53.198 20.1305 0.070261 0.43009 -1.035392
2010-05-28 07:07:06 51°17.922 2°53.21 20.1224 0.070261 0.430106 -1.000568
2010-05-28 07:07:11 51°17.921 2°53.223 20.1344 0.070261 0.430114 -1.035392
2010-05-28 07:07:16 51°17.918 2°53.238 20.147 0.070261 0.430122 -1.000568
2010-05-28 07:07:21 51°17.914 2°53.253 20.1481 0.070261 0.430114 -1.035392
2010-05-28 07:07:26 51°17.911 2°53.269 20.1616 0.070261 0.430114 -1.035392
2010-05-28 07:07:31 51°17.907 2°53.285 20.1546 0.070261 0.430122 -1.035392
2010-05-28 07:07:36 51°17.904 2°53.303 20.1411 0.070261 0.430122 -1.035392
2010-05-28 07:07:41 51°17.9 2°53.321 20.1569 0.070261 0.430106 -1.035392
2010-05-28 07:07:46 51°17.896 2°53.34 20.1598 0.070261 0.43009 -1.000568
2010-05-28 07:07:51 51°17.892 2°53.358 20.1483 0.070261 0.430074 -1.070216
2010-05-28 07:07:56 51°17.889 2°53.376 20.1435 0.070261 0.430074 -1.070216
2010-05-28 07:08:01 51°17.885 2°53.395 20.1468 0.070261 0.430066 -1.035392
2010-05-28 07:08:06 51°17.882 2°53.413 20.1663 0.070261 0.430066 -1.070216
2010-05-28 07:08:11 51°17.878 2°53.431 20.1452 0.070261 0.430058 -1.035392
2010-05-28 07:08:16 51°17.875 2°53.448 20.1608 0.070261 0.430074 -1.070216
2010-05-28 07:08:21 51°17.871 2°53.465 20.1704 0.070261 0.430058 -1.035392
2010-05-28 07:08:26 51°17.868 2°53.482 20.1429 0.070261 0.430058 -1.035392
2010-05-28 07:08:31 51°17.865 2°53.499 20.1584 0.070261 0.430074 -1.035392
2010-05-28 07:08:36 51°17.862 2°53.516 20.1675 0.070261 0.430058 -1.035392
2010-05-28 07:08:40 51°17.859 2°53.529 20.1651 0.070261 0.430058 -1.035392
2010-05-28 07:08:46 51°17.855 2°53.548 20.167 0.070261 0.430066 -1.000568
2010-05-28 07:08:51 51°17.852 2°53.564 20.1642 0.070261 0.43005 -1.035392
2010-05-28 07:08:56 51°17.849 2°53.579 20.1614 0.070261 0.43005 -1.035392
2010-05-28 07:09:01 51°17.845 2°53.594 20.183 0.070261 0.43005 -1.035392
2010-05-28 07:09:06 51°17.843 2°53.608 20.1783 0.070261 0.430058 -1.035392
2010-05-28 07:09:11 51°17.84 2°53.621 20.2046 0.070261 0.430058 -1.000568
2010-05-28 07:09:16 51°17.839 2°53.634 20.1933 0.070261 0.430066 -1.000568
2010-05-28 07:09:21 51°17.838 2°53.645 20.2114 0.070261 0.430074 -1.035392
2010-05-28 07:09:26 51°17.838 2°53.656 20.2074 0.070261 0.430074 -1.035392
2010-05-28 07:09:31 51°17.838 2°53.666 20.2042 0.070261 0.43009 -1.035392
2010-05-28 07:09:36 51°17.838 2°53.675 20.1955 0.070261 0.430082 -1.035392
2010-05-28 07:09:41 51°17.839 2°53.684 20.2079 0.070261 0.430082 -1.035392
2010-05-28 07:09:46 51°17.84 2°53.691 20.1983 0.070261 0.430066 -1.035392
2010-05-28 07:09:51 51°17.841 2°53.697 20.208 0.070261 0.430058 -1.000568
2010-05-28 07:09:56 51°17.842 2°53.703 20.189 0.070261 0.430058 -1.000568
2010-05-28 07:10:01 51°17.843 2°53.707 20.1986 0.070261 0.430058 -1.035392
2010-05-28 07:10:06 51°17.843 2°53.711 20.1989 0.070261 0.430066 -1.035392
2010-05-28 07:10:11 51°17.843 2°53.712 20.1987 0.070261 0.430058 -1.000568
2010-05-28 07:10:16 51°17.842 2°53.713 20.2109 0.070261 0.430066 -1.000568
2010-05-28 07:10:21 51°17.841 2°53.713 20.2074 0.070261 0.430066 -1.035392
2010-05-28 07:10:26 51°17.84 2°53.714 20.1982 0.070261 0.430066 -1.035392
2010-05-28 07:10:31 51°17.839 2°53.714 20.2027 0.070261 0.430042 -1.035392
2010-05-28 07:10:36 51°17.838 2°53.714 20.2108 0.070261 0.430042 -1.035392
2010-05-28 07:10:41 51°17.837 2°53.714 20.1949 0.070261 0.430026 -1.070216
2010-05-28 07:10:46 51°17.836 2°53.714 20.2086 0.070261 0.430026 -1.070216
2010-05-28 07:10:51 51°17.835 2°53.714 20.2166 0.070261 0.430026 -1.000568
2010-05-28 07:10:56 51°17.834 2°53.714 20.2237 0.070261 0.430026 -1.000568
2010-05-28 07:11:01 51°17.832 2°53.714 20.2159 0.070261 0.430018 -1.035392
2010-05-28 07:11:06 51°17.831 2°53.713 20.2115 0.070261 0.430018 -1.000568
2010-05-28 07:11:11 51°17.83 2°53.714 20.212 0.070261 0.430018 -1.035392
2010-05-28 07:11:16 51°17.829 2°53.713 20.2191 0.070261 0.430026 -1.035392
2010-05-28 07:11:21 51°17.828 2°53.713 20.1971 0.070261 0.430018 -1.035392
2010-05-28 07:11:26 51°17.827 2°53.712 20.2051 0.070261 0.430018 -1.035392
2010-05-28 07:11:31 51°17.826 2°53.712 20.2003 0.070261 0.430026 -1.000568
2010-05-28 07:11:36 51°17.825 2°53.711 20.2052 0.070261 0.43001 -1.000568
2010-05-28 07:11:41 51°17.824 2°53.711 20.2125 0.070261 0.43001 -1.000568
2010-05-28 07:11:46 51°17.822 2°53.711 20.2172 0.070261 0.430018 -1.070216
2010-05-28 07:11:51 51°17.821 2°53.711 20.2212 0.070261 0.430018 -1.035392
2010-05-28 07:11:56 51°17.82 2°53.71 20.2088 0.070261 0.430018 -1.035392
2010-05-28 07:12:01 51°17.819 2°53.71 20.2026 0.070261 0.430018 -1.035392
2010-05-28 07:12:06 51°17.817 2°53.709 20.2211 0.070261 0.430018 -1.035392
2010-05-28 07:12:11 51°17.816 2°53.709 20.2156 0.070261 0.430018 -1.035392
2010-05-28 07:12:16 51°17.815 2°53.708 20.2182 0.070261 0.430018 -1.035392
2010-05-28 07:12:21 51°17.814 2°53.708 20.2083 0.070261 0.430018 -1.035392
2010-05-28 07:12:26 51°17.814 2°53.707 20.214 0.070261 0.430018 -1.035392
2010-05-28 07:12:31 51°17.813 2°53.707 20.2231 0.070261 0.43001 -1.035392
2010-05-28 07:12:36 51°17.813 2°53.707 20.2323 0.070261 0.43001 -1.000568
2010-05-28 07:12:41 51°17.813 2°53.707 20.2273 0.070261 0.430002 -1.035392
2010-05-28 07:12:46 51°17.814 2°53.707 20.2285 0.070261 0.43001 -1.035392
2010-05-28 07:12:51 51°17.814 2°53.708 20.2156 0.070261 0.430018 -1.035392
2010-05-28 07:12:56 51°17.814 2°53.707 20.2238 0.070261 0.430018 -1.035392
2010-05-28 07:13:01 51°17.814 2°53.707 20.2225 0.070261 0.429994 -1.035392
2010-05-28 07:13:06 51°17.815 2°53.707 20.2216 0.070261 0.430002 -1.035392
2010-05-28 07:13:11 51°17.815 2°53.706 20.225 0.070261 0.429994 -1.035392
2010-05-28 07:13:16 51°17.815 2°53.706 20.2249 0.070261 0.429994 -1.000568
2010-05-28 07:13:21 51°17.815 2°53.706 20.2289 0.070261 0.430002 -1.000568
2010-05-28 07:13:26 51°17.816 2°53.705 20.2245 0.070261 0.430002 -1.000568
2010-05-28 07:13:31 51°17.816 2°53.705 20.2314 0.070261 0.429994 -1.035392
2010-05-28 07:13:36 51°17.816 2°53.705 20.2293 0.070261 0.43001 -1.000568
2010-05-28 07:13:41 51°17.816 2°53.704 20.2397 0.070261 0.430002 -1.000568
2010-05-28 07:13:46 51°17.816 2°53.704 20.236 0.070261 0.430002 -1.000568
2010-05-28 07:13:51 51°17.816 2°53.704 20.2329 0.070261 0.430002 -1.035392
2010-05-28 07:13:56 51°17.816 2°53.703 20.2143 0.070261 0.430002 -1.035392
2010-05-28 07:14:01 51°17.816 2°53.703 20.2287 0.070261 0.430002 -1.035392
2010-05-28 07:14:06 51°17.816 2°53.703 20.24 0.070261 0.430002 -1.035392
2010-05-28 07:14:11 51°17.815 2°53.702 20.2352 0.070261 0.430002 -1.000568
2010-05-28 07:14:16 51°17.815 2°53.701 20.2275 0.070261 0.429994 -1.070216
2010-05-28 07:14:21 51°17.816 2°53.701 20.2123 0.070261 0.429994 -1.035392
2010-05-28 07:14:26 51°17.816 2°53.701 20.2392 0.070261 0.429994 -1.035392
2010-05-28 07:14:31 51°17.816 2°53.701 20.2398 0.070261 0.429986 -1.070216
2010-05-28 07:14:37 51°17.816 2°53.701 20.2269 0.070261 0.430002 -1.035392
2010-05-28 07:14:41 51°17.816 2°53.7 20.2296 0.070261 0.429986 -1.035392
2010-05-28 07:14:46 51°17.816 2°53.7 20.2383 0.070261 0.429994 -1.035392
2010-05-28 07:14:51 51°17.816 2°53.7 20.2411 0.070261 0.429994 -1.070216
2010-05-28 07:14:57 51°17.817 2°53.7 20.2381 0.070261 0.429994 -1.070216
2010-05-28 07:15:01 51°17.817 2°53.699 20.2402 0.070261 0.429994 -1.035392
2010-05-28 07:15:06 51°17.817 2°53.699 20.2476 0.070261 0.429994 -1.035392
2010-05-28 07:15:12 51°17.817 2°53.699 20.2296 0.070261 0.429986 -1.000568
2010-05-28 07:15:16 51°17.817 2°53.698 20.243 0.070261 0.429994 -1.035392
2010-05-28 07:15:21 51°17.817 2°53.698 20.2434 0.070261 0.429986 -1.000568
2010-05-28 07:15:26 51°17.818 2°53.697 20.237 0.070261 0.429986 -1.000568
2010-05-28 07:15:31 51°17.818 2°53.697 20.2374 0.070261 0.429994 -1.035392
2010-05-28 07:15:37 51°17.818 2°53.697 20.2468 0.070261 0.429994 -1.000568
2010-05-28 07:15:41 51°17.818 2°53.697 20.2451 0.070261 0.429986 -1.035392
2010-05-28 07:15:46 51°17.818 2°53.697 20.2484 0.070261 0.42997 -1.000568
2010-05-28 07:15:51 51°17.819 2°53.696 20.2475 0.070261 0.429986 -1.035392
2010-05-28 07:15:56 51°17.819 2°53.696 20.2456 0.070261 0.429986 -1.035392
2010-05-28 07:16:01 51°17.819 2°53.695 20.2475 0.070261 0.429978 -1.000568
2010-05-28 07:16:06 51°17.819 2°53.695 20.2428 0.070261 0.429978 -1.000568
2010-05-28 07:16:11 51°17.819 2°53.694 20.2485 0.070261 0.429978 -1.000568
2010-05-28 07:16:16 51°17.82 2°53.694 20.2542 0.070261 0.429978 -1.000568
2010-05-28 07:16:21 51°17.82 2°53.694 20.2497 0.070261 0.429978 -1.000568
2010-05-28 07:16:26 51°17.82 2°53.694 20.2457 0.070261 0.429978 -1.000568
2010-05-28 07:16:31 51°17.82 2°53.694 20.2545 0.070261 0.42997 -1.035392
2010-05-28 07:16:36 51°17.82 2°53.694 20.257 0.070261 0.42997 -1.000568
2010-05-28 07:16:41 51°17.82 2°53.693 20.2565 0.070261 0.429978 -1.035392
2010-05-28 07:16:46 51°17.82 2°53.693 20.2585 0.070261 0.429978 -1.000568
2010-05-28 07:16:51 51°17.821 2°53.693 20.2452 0.070261 0.429978 -1.070216
2010-05-28 07:16:56 51°17.821 2°53.692 20.2423 0.070261 0.429978 -1.070216
2010-05-28 07:17:01 51°17.821 2°53.692 20.2427 0.070261 0.429978 -1.035392
2010-05-28 07:17:06 51°17.821 2°53.692 20.2549 0.070261 0.429962 -1.035392
2010-05-28 07:17:11 51°17.821 2°53.692 20.2554 0.070261 0.42997 -1.035392
2010-05-28 07:17:16 51°17.821 2°53.692 20.2632 0.070261 0.429962 -1.035392
2010-05-28 07:17:21 51°17.822 2°53.692 20.2662 0.070261 0.429962 -1.000568
2010-05-28 07:17:26 51°17.822 2°53.691 20.2536 0.070261 0.429962 -1.000568
2010-05-28 07:17:31 51°17.822 2°53.691 20.2685 0.070261 0.429962 -1.035392
2010-05-28 07:17:36 51°17.822 2°53.692 20.2603 0.070261 0.429962 -1.000568
2010-05-28 07:17:41 51°17.822 2°53.692 20.2592 0.070261 0.429962 -1.035392
2010-05-28 07:17:46 51°17.822 2°53.692 20.2611 0.070261 0.429962 -1.035392
2010-05-28 07:17:51 51°17.822 2°53.691 20.2562 0.070261 0.429962 -1.000568
2010-05-28 07:17:56 51°17.822 2°53.691 20.2621 0.070261 0.429962 -1.000568
2010-05-28 07:18:01 51°17.822 2°53.691 20.2698 0.070261 0.429954 -1.035392
2010-05-28 07:18:06 51°17.821 2°53.691 20.2504 0.070261 0.429962 -1.000568
2010-05-28 07:18:11 51°17.821 2°53.691 20.2587 0.070261 0.429962 -1.035392
2010-05-28 07:18:16 51°17.821 2°53.691 20.2686 0.070261 0.429962 -1.000568
2010-05-28 07:18:21 51°17.821 2°53.691 20.2641 0.070261 0.429954 -1.000568
2010-05-28 07:18:26 51°17.821 2°53.691 20.25 0.070261 0.429954 -1.000568
2010-05-28 07:18:31 51°17.821 2°53.691 20.2597 0.070261 0.429954 -1.035392
2010-05-28 07:18:36 51°17.821 2°53.691 20.2698 0.070261 0.429954 -1.000568
2010-05-28 07:18:41 51°17.821 2°53.691 20.2729 0.070261 0.429946 -1.000568
2010-05-28 07:18:46 51°17.821 2°53.691 20.2725 0.070261 0.429954 -1.000568
2010-05-28 07:18:51 51°17.821 2°53.691 20.2654 0.070261 0.429946 -1.000568
2010-05-28 07:18:56 51°17.821 2°53.691 20.2754 0.070261 0.429946 -1.000568
2010-05-28 07:19:01 51°17.821 2°53.691 20.2589 0.070261 0.429946 -1.000568
2010-05-28 07:19:06 51°17.821 2°53.691 20.2699 0.070261 0.429938 -1.035392
2010-05-28 07:19:11 51°17.821 2°53.691 20.2753 0.070261 0.429938 -1.035392
2010-05-28 07:19:16 51°17.821 2°53.691 20.2761 0.070261 0.429946 -1.035392
2010-05-28 07:19:21 51°17.821 2°53.691 20.2728 0.070261 0.429946 -1.035392
2010-05-28 07:19:26 51°17.821 2°53.691 20.2821 0.070261 0.429946 -1.035392
2010-05-28 07:19:31 51°17.822 2°53.691 20.2769 0.070261 0.429938 -1.035392
2010-05-28 07:19:36 51°17.822 2°53.691 20.2811 0.070261 0.429946 -1.035392
2010-05-28 07:19:41 51°17.822 2°53.691 20.2779 0.070261 0.429938 -1.000568
2010-05-28 07:19:46 51°17.822 2°53.692 20.2698 0.070261 0.429938 -1.000568
2010-05-28 07:19:51 51°17.822 2°53.691 20.2813 0.070261 0.42993 -1.000568
2010-05-28 07:19:56 51°17.822 2°53.691 20.2834 0.070261 0.42993 -1.000568
2010-05-28 07:20:01 51°17.823 2°53.691 20.2825 0.070261 0.42993 -1.035392
2010-05-28 07:20:06 51°17.823 2°53.691 20.2812 0.070261 0.429938 -1.035392
2010-05-28 07:20:11 51°17.823 2°53.691 20.2749 0.070261 0.42993 -1.035392
2010-05-28 07:20:16 51°17.823 2°53.691 20.2769 0.070261 0.429921 -1.035392
2010-05-28 07:20:21 51°17.823 2°53.691 20.2882 0.070261 0.42993 -1.000568
2010-05-28 07:20:26 51°17.823 2°53.692 20.2675 0.070261 0.42993 -1.000568
2010-05-28 07:20:31 51°17.823 2°53.692 20.2856 0.070261 0.429921 -1.035392
2010-05-28 07:20:36 51°17.823 2°53.692 20.2889 0.070261 0.429921 -1.070216
2010-05-28 07:20:41 51°17.823 2°53.691 20.2883 0.070261 0.42993 -1.035392
2010-05-28 07:20:46 51°17.823 2°53.691 20.2917 0.070261 0.42993 -1.035392
2010-05-28 07:20:51 51°17.823 2°53.691 20.2848 0.070261 0.42993 -1.070216
2010-05-28 07:20:56 51°17.823 2°53.691 20.2716 0.070261 0.42993 -1.070216
2010-05-28 07:21:01 51°17.823 2°53.691 20.2795 0.070261 0.429921 -1.035392
2010-05-28 07:21:06 51°17.823 2°53.691 20.2812 0.070261 0.429921 -1.035392
2010-05-28 07:21:11 51°17.823 2°53.691 20.2949 0.070261 0.429921 -1.035392
2010-05-28 07:21:16 51°17.823 2°53.691 20.2706 0.070261 0.429913 -1.035392
2010-05-28 07:21:21 51°17.823 2°53.691 20.2915 0.070261 0.429913 -1.035392
2010-05-28 07:21:26 51°17.823 2°53.691 20.2836 0.070261 0.429913 -1.035392
2010-05-28 07:21:31 51°17.823 2°53.691 20.2932 0.070261 0.429921 -1.035392
2010-05-28 07:21:36 51°17.823 2°53.69 20.2894 0.070261 0.429921 -1.035392
2010-05-28 07:21:41 51°17.823 2°53.69 20.2965 0.070261 0.429913 -1.000568
2010-05-28 07:21:46 51°17.823 2°53.69 20.2887 0.070261 0.429913 -1.000568
2010-05-28 07:21:51 51°17.823 2°53.691 20.2836 0.070261 0.429913 -1.035392
2010-05-28 07:21:56 51°17.823 2°53.691 20.29 0.070261 0.429913 -1.035392
2010-05-28 07:22:01 51°17.823 2°53.691 20.3033 0.070261 0.429913 -1.000568
2010-05-28 07:22:06 51°17.823 2°53.69 20.2948 0.070261 0.429921 -1.035392
2010-05-28 07:22:11 51°17.823 2°53.69 20.3035 0.070261 0.429913 -1.035392
2010-05-28 07:22:16 51°17.823 2°53.69 20.2981 0.070261 0.429913 -1.035392
2010-05-28 07:22:21 51°17.823 2°53.69 20.2885 0.070261 0.429905 -1.000568
2010-05-28 07:22:26 51°17.823 2°53.69 20.2869 0.070261 0.429905 -1.000568
2010-05-28 07:22:31 51°17.823 2°53.69 20.2878 0.070261 0.429913 -1.000568
2010-05-28 07:22:36 51°17.823 2°53.69 20.3008 0.070261 0.429905 -1.000568
2010-05-28 07:22:41 51°17.823 2°53.69 20.305 0.070261 0.429913 -1.035392
2010-05-28 07:22:45 51°17.823 2°53.69 20.305 0.070261 0.429905 -1.070216
2010-05-28 07:22:52 51°17.823 2°53.69 20.3076 0.070261 0.429905 -1.035392
2010-05-28 07:22:57 51°17.823 2°53.69 20.3045 0.070261 0.429905 -1.035392
2010-05-28 07:23:01 51°17.823 2°53.69 20.3098 0.070261 0.429905 -1.035392
2010-05-28 07:23:07 51°17.823 2°53.69 20.3096 0.070261 0.429897 -1.035392
2010-05-28 07:23:12 51°17.823 2°53.69 20.2971 0.070261 0.429897 -1.035392
2010-05-28 07:23:17 51°17.823 2°53.69 20.3034 0.070261 0.429897 -1.000568
2010-05-28 07:23:21 51°17.823 2°53.69 20.3117 0.070261 0.429897 -1.070216
2010-05-28 07:23:26 51°17.823 2°53.69 20.3136 0.070261 0.429897 -1.070216
2010-05-28 07:23:31 51°17.823 2°53.69 20.3125 0.070261 0.429905 -1.035392
2010-05-28 07:23:37 51°17.823 2°53.69 20.3119 0.070261 0.429889 -1.035392
2010-05-28 07:23:42 51°17.823 2°53.69 20.3222 0.070261 0.429905 -1.000568
2010-05-28 07:23:46 51°17.823 2°53.69 20.3037 0.070261 0.429897 -1.000568
2010-05-28 07:23:51 51°17.823 2°53.69 20.3114 0.070261 0.429897 -1.000568
2010-05-28 07:23:57 51°17.823 2°53.69 20.316 0.070261 0.429897 -1.000568
2010-05-28 07:24:02 51°17.823 2°53.69 20.3206 0.070261 0.429897 -1.035392
2010-05-28 07:24:06 51°17.823 2°53.69 20.3166 0.070261 0.429897 -1.000568
2010-05-28 07:24:11 51°17.824 2°53.69 20.3115 0.070261 0.429897 -1.000568
2010-05-28 07:24:17 51°17.824 2°53.69 20.3231 0.070261 0.429897 -1.035392
2010-05-28 07:24:21 51°17.824 2°53.69 20.3102 0.070261 0.429897 -1.000568
2010-05-28 07:24:26 51°17.824 2°53.69 20.3138 0.070261 0.429897 -1.000568
2010-05-28 07:24:31 51°17.824 2°53.69 20.3277 0.070261 0.429881 -1.035392
2010-05-28 07:24:36 51°17.824 2°53.689 20.3193 0.070261 0.429889 -1.035392
2010-05-28 07:24:41 51°17.824 2°53.689 20.3138 0.070261 0.429881 -1.035392
2010-05-28 07:24:46 51°17.824 2°53.69 20.3239 0.070261 0.429889 -1.070216
2010-05-28 07:24:50 51°17.823 2°53.69 20.3185 0.070261 0.429889 -1.035392
2010-05-28 07:24:56 51°17.823 2°53.69 20.3282 0.070261 0.429889 -1.035392
2010-05-28 07:25:01 51°17.823 2°53.69 20.3267 0.070261 0.429889 -1.035392
2010-05-28 07:25:06 51°17.823 2°53.69 20.3252 0.070261 0.429889 -1.035392
2010-05-28 07:25:11 51°17.823 2°53.69 20.3222 0.070261 0.429881 -1.000568
2010-05-28 07:25:16 51°17.823 2°53.69 20.3251 0.070261 0.429881 -1.000568
2010-05-28 07:25:21 51°17.823 2°53.69 20.3247 0.070261 0.429881 -1.000568
2010-05-28 07:25:26 51°17.823 2°53.69 20.3341 0.070261 0.429881 -1.000568
2010-05-28 07:25:31 51°17.823 2°53.69 20.3329 0.070261 0.429873 -1.000568
2010-05-28 07:25:36 51°17.823 2°53.69 20.3258 0.070261 0.429889 -1.000568
2010-05-28 07:25:41 51°17.823 2°53.69 20.332 0.070261 0.429881 -1.070216
2010-05-28 07:25:46 51°17.823 2°53.69 20.3341 0.070261 0.429881 -1.035392
2010-05-28 07:25:51 51°17.823 2°53.69 20.3149 0.070261 0.429873 -1.035392
2010-05-28 07:25:56 51°17.823 2°53.69 20.313 0.070261 0.429873 -1.035392
2010-05-28 07:26:01 51°17.823 2°53.69 20.3359 0.070261 0.429881 -1.035392
2010-05-28 07:26:06 51°17.823 2°53.69 20.3339 0.070261 0.429881 -1.035392
2010-05-28 07:26:11 51°17.823 2°53.69 20.3378 0.070261 0.429889 -1.035392
2010-05-28 07:26:16 51°17.823 2°53.69 20.3293 0.070261 0.429881 -1.000568
2010-05-28 07:26:21 51°17.823 2°53.69 20.3344 0.070261 0.429889 -1.000568
2010-05-28 07:26:26 51°17.823 2°53.691 20.3367 0.070261 0.429889 -1.000568
2010-05-28 07:26:31 51°17.823 2°53.69 20.334 0.070261 0.429881 -1.000568
2010-05-28 07:26:36 51°17.823 2°53.69 20.3352 0.070261 0.429873 -1.035392
2010-05-28 07:26:42 51°17.823 2°53.69 20.3344 0.070261 0.429881 -1.035392
2010-05-28 07:26:46 51°17.823 2°53.69 20.3395 0.070261 0.429873 -1.035392
2010-05-28 07:26:50 51°17.823 2°53.69 20.3467 0.070261 0.429873 -1.035392
2010-05-28 07:26:56 51°17.823 2°53.689 20.3417 0.070261 0.429873 -1.035392
2010-05-28 07:27:01 51°17.823 2°53.689 20.3468 0.070261 0.429881 -1.035392
2010-05-28 07:27:06 51°17.823 2°53.689 20.3472 0.070261 0.429881 -1.070216
2010-05-28 07:27:12 51°17.823 2°53.69 20.3382 0.070261 0.429881 -1.000568
2010-05-28 07:27:16 51°17.823 2°53.69 20.341 0.070261 0.429873 -1.000568
2010-05-28 07:27:21 51°17.823 2°53.69 20.3412 0.070261 0.429881 -1.035392
2010-05-28 07:27:26 51°17.823 2°53.689 20.3435 0.070261 0.429881 -1.035392
2010-05-28 07:27:31 51°17.823 2°53.689 20.353 0.070261 0.429865 -1.000568
2010-05-28 07:27:36 51°17.823 2°53.689 20.3527 0.070261 0.429873 -1.035392
2010-05-28 07:27:41 51°17.823 2°53.689 20.3476 0.070261 0.429873 -1.000568
2010-05-28 07:27:45 51°17.823 2°53.689 20.3396 0.070261 0.429881 -1.035392
2010-05-28 07:27:51 51°17.823 2°53.69 20.3593 0.070261 0.429865 -1.000568
2010-05-28 07:27:56 51°17.823 2°53.689 20.3578 0.070261 0.429865 -1.000568
2010-05-28 07:28:01 51°17.823 2°53.69 20.3442 0.070261 0.429881 -1.035392
2010-05-28 07:28:07 51°17.823 2°53.69 20.3521 0.070261 0.429873 -1.070216
2010-05-28 07:28:11 51°17.823 2°53.69 20.3449 0.070261 0.429865 -1.035392
2010-05-28 07:28:16 51°17.823 2°53.689 20.3549 0.070261 0.429881 -1.035392
2010-05-28 07:28:22 51°17.824 2°53.689 20.3576 0.070261 0.429873 -1.000568
2010-05-28 07:28:27 51°17.824 2°53.689 20.3621 0.070261 0.429873 -1.000568
2010-05-28 07:28:31 51°17.823 2°53.689 20.3678 0.070261 0.429857 -1.035392
2010-05-28 07:28:36 51°17.823 2°53.689 20.3592 0.070261 0.429873 -1.035392
2010-05-28 07:28:42 51°17.823 2°53.689 20.3652 0.070261 0.429865 -1.035392
2010-05-28 07:28:47 51°17.823 2°53.689 20.3619 0.070261 0.429873 -1.070216
2010-05-28 07:28:51 51°17.823 2°53.69 20.372 0.070261 0.429873 -1.035392
2010-05-28 07:28:56 51°17.823 2°53.69 20.3687 0.070261 0.429873 -1.035392
2010-05-28 07:29:02 51°17.823 2°53.69 20.3646 0.070261 0.429865 -1.035392
2010-05-28 07:29:07 51°17.823 2°53.69 20.3608 0.070261 0.429865 -1.035392
2010-05-28 07:29:11 51°17.823 2°53.69 20.3759 0.070261 0.429857 -1.035392
2010-05-28 07:29:17 51°17.823 2°53.69 20.3786 0.070261 0.429865 -1.035392
2010-05-28 07:29:21 51°17.823 2°53.69 20.356 0.070261 0.429873 -1.000568
2010-05-28 07:29:27 51°17.823 2°53.69 20.3531 0.070261 0.429873 -1.000568
2010-05-28 07:29:31 51°17.823 2°53.69 20.3607 0.070261 0.429857 -1.000568
2010-05-28 07:29:36 51°17.823 2°53.69 20.363 0.070261 0.429865 -1.035392
2010-05-28 07:29:41 51°17.823 2°53.69 20.3742 0.070261 0.429873 -1.000568
2010-05-28 07:29:47 51°17.823 2°53.69 20.3732 0.070261 0.429857 -1.035392
2010-05-28 07:29:51 51°17.823 2°53.69 20.3659 0.070261 0.429857 -1.035392
2010-05-28 07:29:56 51°17.824 2°53.69 20.3681 0.070261 0.429857 -1.035392
2010-05-28 07:30:01 51°17.824 2°53.689 20.3766 0.070261 0.429857 -1.000568
2010-05-28 07:30:07 51°17.824 2°53.689 20.3727 0.070261 0.429857 -1.035392
2010-05-28 07:30:11 51°17.824 2°53.689 20.3692 0.070261 0.429849 -1.035392
2010-05-28 07:30:16 51°17.824 2°53.689 20.3813 0.070261 0.429857 -1.000568
2010-05-28 07:30:22 51°17.824 2°53.689 20.3831 0.070261 0.429857 -1.035392
2010-05-28 07:30:26 51°17.824 2°53.689 20.3799 0.070261 0.429857 -1.035392
2010-05-28 07:30:31 51°17.824 2°53.689 20.3792 0.070261 0.429857 -1.070216
2010-05-28 07:30:37 51°17.824 2°53.689 20.3721 0.070261 0.429849 -1.035392
2010-05-28 07:30:42 51°17.824 2°53.689 20.386 0.070261 0.429857 -1.035392
2010-05-28 07:30:47 51°17.825 2°53.689 20.3684 0.070261 0.429857 -1.000568
2010-05-28 07:30:51 51°17.825 2°53.689 20.369 0.070261 0.429865 -1.035392
2010-05-28 07:30:56 51°17.825 2°53.689 20.3798 0.070261 0.429865 -1.035392
2010-05-28 07:31:02 51°17.824 2°53.69 20.3886 0.070261 0.429857 -1.000568
2010-05-28 07:31:07 51°17.825 2°53.689 20.3929 0.070261 0.429865 -1.000568
2010-05-28 07:31:11 51°17.825 2°53.69 20.3787 0.070261 0.429849 -1.000568
2010-05-28 07:31:16 51°17.825 2°53.69 20.382 0.070261 0.429865 -1.035392
2010-05-28 07:31:22 51°17.825 2°53.69 20.3865 0.070261 0.429857 -1.000568
2010-05-28 07:31:27 51°17.825 2°53.689 20.3828 0.070261 0.429857 -1.000568
2010-05-28 07:31:31 51°17.825 2°53.689 20.3911 0.070261 0.429857 -1.035392
2010-05-28 07:31:37 51°17.825 2°53.689 20.3816 0.070261 0.429849 -1.035392
2010-05-28 07:31:41 51°17.825 2°53.689 20.3777 0.070261 0.429857 -1.070216
2010-05-28 07:31:47 51°17.825 2°53.689 20.3932 0.070261 0.429865 -1.000568
2010-05-28 07:31:51 51°17.825 2°53.689 20.3962 0.070261 0.429849 -1.000568
2010-05-28 07:31:56 51°17.824 2°53.689 20.3807 0.070261 0.429849 -1.000568
2010-05-28 07:32:01 51°17.825 2°53.689 20.3777 0.070261 0.429865 -1.000568
2010-05-28 07:32:07 51°17.825 2°53.689 20.3926 0.070261 0.429865 -1.000568
2010-05-28 07:32:11 51°17.825 2°53.689 20.3937 0.070261 0.429865 -1.000568
2010-05-28 07:32:16 51°17.825 2°53.689 20.3964 0.070261 0.429857 -1.000568
2010-05-28 07:32:22 51°17.825 2°53.689 20.3878 0.070261 0.429857 -1.035392
2010-05-28 07:32:27 51°17.825 2°53.689 20.3899 0.070261 0.429857 -1.035392
2010-05-28 07:32:31 51°17.825 2°53.689 20.3905 0.070261 0.429857 -1.035392
2010-05-28 07:32:37 51°17.825 2°53.689 20.3832 0.070261 0.429857 -1.035392
2010-05-28 07:32:41 51°17.825 2°53.689 20.3861 0.070261 0.429857 -1.000568
2010-05-28 07:32:47 51°17.825 2°53.688 20.3987 0.070261 0.429849 -1.000568
2010-05-28 07:32:51 51°17.825 2°53.688 20.3975 0.070261 0.429849 -1.000568
2010-05-28 07:32:57 51°17.825 2°53.688 20.4017 0.070261 0.429849 -1.000568
2010-05-28 07:33:01 51°17.825 2°53.688 20.4043 0.070261 0.429849 -1.000568
2010-05-28 07:33:07 51°17.825 2°53.688 20.3986 0.070261 0.429849 -1.035392
2010-05-28 07:33:11 51°17.826 2°53.688 20.3984 0.070261 0.429857 -1.035392
2010-05-28 07:33:17 51°17.825 2°53.688 20.3851 0.070261 0.429857 -1.000568
2010-05-28 07:33:22 51°17.825 2°53.688 20.3889 0.070261 0.429849 -1.035392
2010-05-28 07:33:27 51°17.825 2°53.688 20.4037 0.070261 0.429849 -1.035392
2010-05-28 07:33:31 51°17.826 2°53.688 20.4106 0.070261 0.429857 -1.035392
2010-05-28 07:33:36 51°17.826 2°53.688 20.4034 0.070261 0.429865 -1.035392
2010-05-28 07:33:42 51°17.826 2°53.688 20.3913 0.070261 0.429857 -1.035392
2010-05-28 07:33:47 51°17.826 2°53.688 20.3934 0.070261 0.429857 -1.070216
2010-05-28 07:33:51 51°17.826 2°53.688 20.4039 0.070261 0.429849 -1.000568
2010-05-28 07:33:57 51°17.826 2°53.688 20.4097 0.070261 0.429849 -1.000568
2010-05-28 07:34:01 51°17.826 2°53.688 20.4084 0.070261 0.429849 -1.035392
2010-05-28 07:34:07 51°17.826 2°53.688 20.3954 0.070261 0.429849 -1.035392
2010-05-28 07:34:11 51°17.826 2°53.688 20.395 0.070261 0.429849 -1.000568
2010-05-28 07:34:17 51°17.826 2°53.688 20.4139 0.070261 0.429849 -1.070216
2010-05-28 07:34:22 51°17.826 2°53.688 20.4167 0.070261 0.429849 -1.035392
2010-05-28 07:34:26 51°17.826 2°53.687 20.4143 0.070261 0.429849 -1.035392
2010-05-28 07:34:31 51°17.826 2°53.687 20.4118 0.070261 0.429857 -1.070216
2010-05-28 07:34:36 51°17.826 2°53.688 20.4131 0.070261 0.429849 -1.035392
2010-05-28 07:34:41 51°17.826 2°53.688 20.4025 0.070261 0.429849 -1.035392
2010-05-28 07:34:46 51°17.826 2°53.688 20.416 0.070261 0.429865 -1.000568
2010-05-28 07:34:52 51°17.826 2°53.687 20.4002 0.070261 0.429857 -1.035392
2010-05-28 07:34:56 51°17.826 2°53.687 20.4204 0.070261 0.429857 -1.035392
2010-05-28 07:35:01 51°17.826 2°53.687 20.4247 0.070261 0.429841 -1.035392
2010-05-28 07:35:06 51°17.826 2°53.687 20.4139 0.070261 0.429849 -1.035392
2010-05-28 07:35:11 51°17.826 2°53.687 20.4152 0.070261 0.429857 -1.035392
2010-05-28 07:35:17 51°17.826 2°53.687 20.4257 0.070261 0.429849 -1.000568
2010-05-28 07:35:22 51°17.826 2°53.687 20.412 0.070261 0.429849 -1.035392
2010-05-28 07:35:27 51°17.826 2°53.687 20.4193 0.070261 0.429849 -1.035392
2010-05-28 07:35:31 51°17.826 2°53.687 20.4245 0.070261 0.429849 -1.035392
2010-05-28 07:35:37 51°17.826 2°53.687 20.4177 0.070261 0.429857 -1.035392
2010-05-28 07:35:42 51°17.826 2°53.688 20.4258 0.070261 0.429857 -1.070216
2010-05-28 07:35:46 51°17.826 2°53.688 20.4189 0.070261 0.429849 -1.000568
2010-05-28 07:35:51 51°17.826 2°53.688 20.4158 0.070261 0.429857 -1.035392
2010-05-28 07:35:56 51°17.826 2°53.688 20.4093 0.070261 0.429857 -1.035392
2010-05-28 07:36:02 51°17.826 2°53.688 20.4251 0.070261 0.429849 -1.035392
2010-05-28 07:36:06 51°17.825 2°53.688 20.4313 0.070261 0.429849 -1.035392
2010-05-28 07:36:11 51°17.825 2°53.688 20.4326 0.070261 0.429857 -1.000568
2010-05-28 07:36:17 51°17.825 2°53.688 20.4247 0.070261 0.429849 -1.070216
2010-05-28 07:36:21 51°17.825 2°53.688 20.4357 0.070261 0.429841 -1.035392
2010-05-28 07:36:27 51°17.825 2°53.688 20.4183 0.070261 0.429841 -1.035392
2010-05-28 07:36:31 51°17.825 2°53.688 20.4287 0.070261 0.429849 -1.000568
2010-05-28 07:36:37 51°17.825 2°53.688 20.4362 0.070261 0.429841 -1.000568
2010-05-28 07:36:42 51°17.825 2°53.688 20.4377 0.070261 0.429849 -1.035392
2010-05-28 07:36:46 51°17.825 2°53.688 20.4197 0.070261 0.429849 -1.035392
2010-05-28 07:36:51 51°17.825 2°53.688 20.4341 0.070261 0.429841 -1.035392
2010-05-28 07:36:56 51°17.825 2°53.688 20.4422 0.070261 0.429841 -1.035392
2010-05-28 07:37:02 51°17.825 2°53.688 20.4354 0.070261 0.429849 -1.000568
2010-05-28 07:37:06 51°17.825 2°53.688 20.4384 0.070261 0.429857 -1.000568
2010-05-28 07:37:11 51°17.825 2°53.688 20.4402 0.070261 0.429849 -1.000568
2010-05-28 07:37:17 51°17.825 2°53.688 20.4434 0.070261 0.429849 -1.035392
2010-05-28 07:37:21 51°17.825 2°53.688 20.4435 0.070261 0.429857 -1.035392
2010-05-28 07:37:27 51°17.825 2°53.688 20.4378 0.070261 0.429857 -1.035392
2010-05-28 07:37:31 51°17.825 2°53.688 20.4338 0.070261 0.429849 -1.035392
2010-05-28 07:37:37 51°17.825 2°53.688 20.4466 0.070261 0.429857 -1.035392
2010-05-28 07:37:41 51°17.825 2°53.688 20.4454 0.070261 0.429849 -1.035392
2010-05-28 07:37:47 51°17.825 2°53.688 20.4431 0.070261 0.429849 -1.035392
2010-05-28 07:37:51 51°17.825 2°53.688 20.4507 0.070261 0.429841 -1.035392
2010-05-28 07:37:56 51°17.825 2°53.688 20.431 0.070261 0.429841 -1.035392
2010-05-28 07:38:01 51°17.825 2°53.688 20.4317 0.070261 0.429849 -1.035392
2010-05-28 07:38:06 51°17.825 2°53.688 20.4469 0.070261 0.429833 -1.035392
2010-05-28 07:38:11 51°17.826 2°53.688 20.4515 0.070261 0.429865 -1.035392
2010-05-28 07:38:16 51°17.826 2°53.688 20.4461 0.070261 0.429849 -1.035392
2010-05-28 07:38:21 51°17.826 2°53.688 20.4448 0.070261 0.429849 -1.035392
2010-05-28 07:38:26 51°17.826 2°53.688 20.4512 0.070261 0.429849 -1.035392
2010-05-28 07:38:31 51°17.826 2°53.688 20.4428 0.070261 0.429849 -1.000568
2010-05-28 07:38:36 51°17.826 2°53.688 20.4442 0.070261 0.429841 -1.000568
2010-05-28 07:38:41 51°17.826 2°53.688 20.452 0.070261 0.429841 -1.035392
2010-05-28 07:38:46 51°17.826 2°53.688 20.4541 0.070261 0.429841 -1.035392
2010-05-28 07:38:51 51°17.826 2°53.688 20.4514 0.070261 0.429841 -1.035392
2010-05-28 07:38:56 51°17.826 2°53.688 20.4626 0.070261 0.429841 -1.035392
2010-05-28 07:39:01 51°17.826 2°53.688 20.446 0.070261 0.429833 -1.035392
2010-05-28 07:39:06 51°17.826 2°53.687 20.4564 0.070261 0.429841 -1.070216
2010-05-28 07:39:11 51°17.826 2°53.687 20.4561 0.070261 0.429849 -1.000568
2010-05-28 07:39:16 51°17.826 2°53.687 20.4633 0.070261 0.429833 -1.035392
2010-05-28 07:39:21 51°17.826 2°53.687 20.4535 0.070261 0.429833 -1.035392
2010-05-28 07:39:26 51°17.826 2°53.687 20.4489 0.070261 0.429833 -1.035392
2010-05-28 07:39:31 51°17.826 2°53.687 20.4582 0.070261 0.429833 -1.035392
2010-05-28 07:39:36 51°17.826 2°53.687 20.4548 0.070261 0.429841 -1.035392
2010-05-28 07:39:41 51°17.826 2°53.687 20.451 0.070261 0.429833 -1.035392
2010-05-28 07:39:46 51°17.826 2°53.687 20.4634 0.070261 0.429841 -1.035392
2010-05-28 07:39:51 51°17.826 2°53.687 20.4698 0.070261 0.429841 -1.035392
2010-05-28 07:39:56 51°17.825 2°53.687 20.4722 0.070261 0.429841 -1.035392
2010-05-28 07:40:01 51°17.825 2°53.687 20.4612 0.070261 0.429849 -1.035392
2010-05-28 07:40:06 51°17.825 2°53.687 20.4678 0.070261 0.429849 -1.000568
2010-05-28 07:40:11 51°17.825 2°53.687 20.4618 0.070261 0.429833 -1.035392
2010-05-28 07:40:16 51°17.825 2°53.687 20.4631 0.070261 0.429841 -1.035392
2010-05-28 07:40:21 51°17.826 2°53.687 20.4677 0.070261 0.429841 -1.035392
2010-05-28 07:40:26 51°17.826 2°53.687 20.474 0.070261 0.429841 -1.035392
2010-05-28 07:40:31 51°17.826 2°53.687 20.4684 0.070261 0.429833 -1.070216
2010-05-28 07:40:36 51°17.825 2°53.687 20.459 0.070261 0.429841 -1.035392
2010-05-28 07:40:41 51°17.825 2°53.687 20.4628 0.070261 0.429833 -1.035392
2010-05-28 07:40:46 51°17.825 2°53.687 20.4642 0.070261 0.429841 -1.000568
2010-05-28 07:40:51 51°17.825 2°53.687 20.4664 0.070261 0.429833 -1.000568
2010-05-28 07:40:56 51°17.825 2°53.687 20.4737 0.070261 0.429833 -1.000568
2010-05-28 07:41:01 51°17.825 2°53.687 20.472 0.070261 0.429841 -1.070216
2010-05-28 07:41:06 51°17.825 2°53.687 20.4808 0.070261 0.429841 -1.035392
2010-05-28 07:41:11 51°17.825 2°53.688 20.4826 0.070261 0.429833 -1.035392
2010-05-28 07:41:16 51°17.825 2°53.687 20.4754 0.070261 0.429841 -1.000568
2010-05-28 07:41:21 51°17.825 2°53.688 20.4728 0.070261 0.429841 -1.035392
2010-05-28 07:41:26 51°17.825 2°53.688 20.4576 0.070261 0.429841 -1.035392
2010-05-28 07:41:31 51°17.824 2°53.688 20.4861 0.070261 0.429849 -1.035392
2010-05-28 07:41:36 51°17.824 2°53.688 20.4839 0.070261 0.429833 -1.035392
2010-05-28 07:41:41 51°17.824 2°53.688 20.4772 0.070261 0.429833 -1.035392
2010-05-28 07:41:46 51°17.824 2°53.688 20.4696 0.070261 0.429849 -1.035392
2010-05-28 07:41:51 51°17.824 2°53.688 20.4743 0.070261 0.429849 -1.035392
2010-05-28 07:41:55 51°17.824 2°53.688 20.4894 0.070261 0.429849 -1.035392
2010-05-28 07:42:01 51°17.824 2°53.688 20.4826 0.070261 0.429849 -1.035392
2010-05-28 07:42:06 51°17.824 2°53.688 20.4772 0.070261 0.429857 -1.000568
2010-05-28 07:42:11 51°17.824 2°53.688 20.4874 0.070261 0.429849 -1.000568
2010-05-28 07:42:16 51°17.824 2°53.688 20.4869 0.070261 0.429849 -1.035392
2010-05-28 07:42:21 51°17.824 2°53.688 20.4839 0.070261 0.429841 -1.000568
2010-05-28 07:42:26 51°17.824 2°53.688 20.4781 0.070261 0.429841 -1.000568
2010-05-28 07:42:31 51°17.825 2°53.688 20.4888 0.070261 0.429841 -1.035392
2010-05-28 07:42:36 51°17.824 2°53.688 20.4927 0.070261 0.429833 -1.000568
2010-05-28 07:42:41 51°17.824 2°53.688 20.4832 0.070261 0.429833 -1.000568
2010-05-28 07:42:46 51°17.824 2°53.688 20.4857 0.070261 0.429841 -1.035392
2010-05-28 07:42:51 51°17.824 2°53.688 20.492 0.070261 0.429841 -1.000568
2010-05-28 07:42:56 51°17.825 2°53.688 20.4852 0.070261 0.429841 -1.000568
2010-05-28 07:43:01 51°17.825 2°53.688 20.4881 0.070261 0.429833 -1.000568
2010-05-28 07:43:06 51°17.825 2°53.688 20.4921 0.070261 0.429841 -1.035392
2010-05-28 07:43:11 51°17.825 2°53.688 20.4981 0.070261 0.429833 -1.035392
2010-05-28 07:43:16 51°17.825 2°53.688 20.4936 0.070261 0.429841 -1.035392
2010-05-28 07:43:21 51°17.826 2°53.688 20.5005 0.070261 0.429841 -1.035392
2010-05-28 07:43:26 51°17.826 2°53.688 20.4922 0.070261 0.429841 -1.035392
2010-05-28 07:43:31 51°17.826 2°53.688 20.493 0.070261 0.429849 -1.035392
2010-05-28 07:43:36 51°17.826 2°53.688 20.5029 0.070261 0.429841 -1.070216
2010-05-28 07:43:41 51°17.826 2°53.688 20.5018 0.070261 0.429841 -1.000568
2010-05-28 07:43:46 51°17.826 2°53.688 20.5026 0.070261 0.429841 -1.035392
2010-05-28 07:43:52 51°17.826 2°53.688 20.4889 0.070261 0.429833 -1.035392
2010-05-28 07:43:56 51°17.826 2°53.687 20.4957 0.070261 0.429833 -1.035392
2010-05-28 07:44:01 51°17.826 2°53.687 20.5056 0.070261 0.429833 -1.035392
2010-05-28 07:44:06 51°17.826 2°53.687 20.4927 0.070261 0.429841 -1.035392
2010-05-28 07:44:10 51°17.826 2°53.688 20.4998 0.070261 0.429841 -1.035392
2010-05-28 07:44:15 51°17.826 2°53.688 20.5123 0.070261 0.429841 -1.035392
2010-05-28 07:44:21 51°17.826 2°53.688 20.4999 0.070261 0.429841 -1.035392
2010-05-28 07:44:26 51°17.826 2°53.688 20.5051 0.070261 0.429841 -1.035392
2010-05-28 07:44:30 51°17.826 2°53.688 20.5063 0.070261 0.429833 -1.035392
2010-05-28 07:44:37 51°17.825 2°53.688 20.5042 0.070261 0.429849 -1.000568
2010-05-28 07:44:42 51°17.825 2°53.688 20.5076 0.070261 0.429841 -1.000568
2010-05-28 07:44:47 51°17.826 2°53.688 20.5077 0.070261 0.429841 -1.035392
2010-05-28 07:44:52 51°17.826 2°53.688 20.5047 0.070261 0.429841 -1.035392
2010-05-28 07:44:56 51°17.826 2°53.688 20.5101 0.070261 0.429841 -1.035392
2010-05-28 07:45:01 51°17.826 2°53.688 20.5107 0.070261 0.429841 -1.035392
2010-05-28 07:45:07 51°17.826 2°53.688 20.5079 0.070261 0.429849 -1.035392
2010-05-28 07:45:11 51°17.826 2°53.688 20.5079 0.070261 0.429849 -1.035392
2010-05-28 07:45:16 51°17.826 2°53.688 20.5183 0.070261 0.429849 -1.000568
2010-05-28 07:45:21 51°17.826 2°53.688 20.5065 0.070261 0.429841 -1.035392
2010-05-28 07:45:27 51°17.826 2°53.687 20.5177 0.070261 0.429841 -1.035392
2010-05-28 07:45:31 51°17.826 2°53.687 20.518 0.070261 0.429841 -1.035392
2010-05-28 07:45:36 51°17.826 2°53.687 20.5136 0.070261 0.429849 -1.000568
2010-05-28 07:45:41 51°17.827 2°53.687 20.5204 0.070261 0.429857 -1.035392
2010-05-28 07:45:47 51°17.827 2°53.687 20.5223 0.070261 0.429841 -1.035392
2010-05-28 07:45:52 51°17.827 2°53.687 20.5182 0.070261 0.429849 -1.000568
2010-05-28 07:45:56 51°17.827 2°53.687 20.5194 0.070261 0.429849 -1.000568
2010-05-28 07:46:01 51°17.827 2°53.687 20.5241 0.070261 0.429849 -1.000568
2010-05-28 07:46:07 51°17.827 2°53.687 20.51 0.070261 0.429841 -1.035392
2010-05-28 07:46:11 51°17.827 2°53.687 20.5224 0.070261 0.429849 -1.035392
2010-05-28 07:46:16 51°17.827 2°53.687 20.5175 0.070261 0.429841 -1.000568
2010-05-28 07:46:21 51°17.827 2°53.687 20.5316 0.070261 0.429841 -1.000568
2010-05-28 07:46:27 51°17.827 2°53.687 20.5173 0.070261 0.429841 -1.000568
2010-05-28 07:46:32 51°17.828 2°53.686 20.5127 0.070261 0.429857 -1.000568
2010-05-28 07:46:36 51°17.828 2°53.686 20.5286 0.070261 0.429849 -1.000568
2010-05-28 07:46:41 51°17.828 2°53.686 20.5286 0.070261 0.429849 -1.035392
2010-05-28 07:46:46 51°17.828 2°53.686 20.5319 0.070261 0.429857 -1.035392
2010-05-28 07:46:51 51°17.828 2°53.686 20.5232 0.070261 0.429849 -1.035392
2010-05-28 07:46:56 51°17.828 2°53.686 20.5152 0.070261 0.429849 -1.035392
2010-05-28 07:47:01 51°17.828 2°53.686 20.5288 0.070261 0.429865 -1.000568
2010-05-28 07:47:06 51°17.828 2°53.686 20.5346 0.070261 0.429849 -1.000568
2010-05-28 07:47:11 51°17.827 2°53.686 20.5381 0.070261 0.429857 -1.000568
2010-05-28 07:47:16 51°17.827 2°53.686 20.5252 0.070261 0.429857 -1.070216
2010-05-28 07:47:21 51°17.827 2°53.686 20.5204 0.070261 0.429857 -1.000568
2010-05-28 07:47:26 51°17.827 2°53.686 20.538 0.070261 0.429857 -1.000568
2010-05-28 07:47:31 51°17.827 2°53.686 20.537 0.070261 0.429857 -1.000568